Time,TemperatureF,DewpointF,PressureIn,WindDirection,WindDirectionDegrees,WindSpeedMPH,WindSpeedGustMPH,Humidity,HourlyPrecipIn,Conditions,Clouds,dailyrainin,SoftwareType,DateUTC
2013-06-01 00:01:00,44.8,38.1,30.27,East,90,1.8,2.1,77,0.00,,,0.00,WUHU216HW,2013-06-01 06:01:00,
2013-06-01 00:03:00,44.5,37.7,30.27,ESE,113,1.3,2.1,77,0.00,,,0.00,WUHU216HW,2013-06-01 06:03:00,
2013-06-01 00:04:00,44.3,37.5,30.27,ESE,113,1.3,2.1,77,0.00,,,0.00,WUHU216HW,2013-06-01 06:04:00,
2013-06-01 00:07:00,43.7,37.4,30.27,SE,135,0.7,2.1,78,0.00,,,0.00,WUHU216HW,2013-06-01 06:07:00,
2013-06-01 00:08:00,43.7,37.4,30.27,SE,135,0.7,2.1,78,0.00,,,0.00,WUHU216HW,2013-06-01 06:08:00,
2013-06-01 00:10:00,43.6,37.4,30.27,SE,135,1.1,2.1,79,0.00,,,0.00,WUHU216HW,2013-06-01 06:10:00,
2013-06-01 00:11:00,43.6,37.8,30.27,SSE,158,1.1,2.1,80,0.00,,,0.00,WUHU216HW,2013-06-01 06:11:00,
2013-06-01 00:13:00,43.6,37.8,30.27,SE,135,1.3,2.1,80,0.00,,,0.00,WUHU216HW,2013-06-01 06:13:00,
2013-06-01 00:17:00,43.2,37.7,30.28,SE,135,1.1,1.5,81,0.00,,,0.00,WUHU216HW,2013-06-01 06:17:00,
2013-06-01 00:18:00,43.2,37.7,30.28,SE,135,1.1,1.5,81,0.00,,,0.00,WUHU216HW,2013-06-01 06:18:00,
2013-06-01 00:20:00,43.0,37.5,30.28,SE,135,1.1,1.9,81,0.00,,,0.00,WUHU216HW,2013-06-01 06:20:00,
2013-06-01 00:23:00,43.4,37.9,30.27,SSE,158,0.7,1.5,81,0.00,,,0.00,WUHU216HW,2013-06-01 06:23:00,
2013-06-01 00:28:00,42.8,37.1,30.28,East,90,0.9,1.9,80,0.00,,,0.00,WUHU216HW,2013-06-01 06:28:00,
2013-06-01 00:33:00,42.8,37.1,30.28,East,90,1.8,2.3,80,0.00,,,0.00,WUHU216HW,2013-06-01 06:33:00,
2013-06-01 00:38:00,42.8,37.1,30.28,East,90,1.1,2.3,80,0.00,,,0.00,WUHU216HW,2013-06-01 06:38:00,
2013-06-01 00:43:00,42.8,37.1,30.27,East,90,1.8,2.3,80,0.00,,,0.00,WUHU216HW,2013-06-01 06:43:00,
2013-06-01 00:48:00,42.7,36.9,30.28,East,90,0.0,2.1,80,0.00,,,0.00,WUHU216HW,2013-06-01 06:48:00,
2013-06-01 00:53:00,42.1,36.0,30.28,WNW,293,0.4,0.8,79,0.00,,,0.00,WUHU216HW,2013-06-01 06:53:00,
2013-06-01 00:58:00,42.1,36.0,30.28,WNW,293,0.0,0.8,79,0.00,,,0.00,WUHU216HW,2013-06-01 06:58:00,
2013-06-01 01:03:00,41.8,36.3,30.28,SSE,158,0.9,1.1,81,0.00,,,0.00,WUHU216HW,2013-06-01 07:03:00,
2013-06-01 01:09:00,41.8,36.3,30.28,SSE,158,0.0,1.3,81,0.00,,,0.00,WUHU216HW,2013-06-01 07:09:00,
2013-06-01 01:14:00,41.8,36.3,30.28,SSE,158,0.0,1.3,81,0.00,,,0.00,WUHU216HW,2013-06-01 07:14:00,
2013-06-01 01:17:00,41.4,35.9,30.28,ENE,68,1.6,2.1,81,0.00,,,0.00,WUHU216HW,2013-06-01 07:17:00,
2013-06-01 01:19:00,41.6,36.5,30.28,ESE,113,1.1,1.3,82,0.00,,,0.00,WUHU216HW,2013-06-01 07:19:00,
2013-06-01 01:20:00,41.2,35.7,30.28,East,90,0.4,2.1,81,0.00,,,0.00,WUHU216HW,2013-06-01 07:20:00,
2013-06-01 01:22:00,41.2,35.7,30.28,SE,135,0.2,2.1,81,0.00,,,0.00,WUHU216HW,2013-06-01 07:22:00,
2013-06-01 01:23:00,41.2,36.1,30.28,ESE,113,1.1,2.1,82,0.00,,,0.00,WUHU216HW,2013-06-01 07:23:00,
2013-06-01 01:24:00,41.2,36.1,30.28,ESE,113,1.1,2.1,82,0.00,,,0.00,WUHU216HW,2013-06-01 07:24:00,
2013-06-01 01:26:00,41.2,36.1,30.28,South,180,0.2,2.1,82,0.00,,,0.00,WUHU216HW,2013-06-01 07:26:00,
2013-06-01 01:27:00,41.2,36.1,30.28,SE,135,0.2,1.9,82,0.00,,,0.00,WUHU216HW,2013-06-01 07:27:00,
2013-06-01 01:29:00,41.2,36.4,30.28,ESE,113,1.1,1.5,83,0.00,,,0.00,WUHU216HW,2013-06-01 07:29:00,
2013-06-01 01:31:00,41.4,36.3,30.28,SSW,203,0.0,2.1,82,0.00,,,0.00,WUHU216HW,2013-06-01 07:31:00,
2013-06-01 01:32:00,41.4,36.3,30.28,SSW,203,0.0,2.1,82,0.00,,,0.00,WUHU216HW,2013-06-01 07:32:00,
2013-06-01 01:33:00,41.4,36.5,30.28,SSE,158,1.3,2.1,83,0.00,,,0.00,WUHU216HW,2013-06-01 07:33:00,
2013-06-01 01:34:00,41.4,36.5,30.28,SSE,158,1.3,2.1,83,0.00,,,0.00,WUHU216HW,2013-06-01 07:34:00,
2013-06-01 01:35:00,41.4,36.5,30.28,SSE,158,0.9,2.1,83,0.00,,,0.00,WUHU216HW,2013-06-01 07:35:00,
2013-06-01 01:38:00,41.4,36.5,30.28,SSW,203,0.7,2.1,83,0.00,,,0.00,WUHU216HW,2013-06-01 07:38:00,
2013-06-01 01:39:00,41.4,36.5,30.28,SSW,203,0.7,2.1,83,0.00,,,0.00,WUHU216HW,2013-06-01 07:39:00,
2013-06-01 01:40:00,41.4,36.3,30.28,SSW,203,0.4,1.5,82,0.00,,,0.00,WUHU216HW,2013-06-01 07:40:00,
2013-06-01 01:42:00,41.6,36.5,30.28,SSW,203,0.0,1.5,82,0.00,,,0.00,WUHU216HW,2013-06-01 07:42:00,
2013-06-01 01:44:00,41.6,36.5,30.28,SSW,203,0.0,1.5,82,0.00,,,0.00,WUHU216HW,2013-06-01 07:44:00,
2013-06-01 01:45:00,41.6,36.5,30.28,SSW,203,0.0,1.3,82,0.00,,,0.00,WUHU216HW,2013-06-01 07:45:00,
2013-06-01 01:48:00,41.4,36.5,30.28,South,180,0.9,1.3,83,0.00,,,0.00,WUHU216HW,2013-06-01 07:48:00,
2013-06-01 01:49:00,41.4,36.5,30.28,South,180,1.1,1.3,83,0.00,,,0.00,WUHU216HW,2013-06-01 07:49:00,
2013-06-01 01:50:00,41.4,36.3,30.28,SSE,158,1.1,1.3,82,0.00,,,0.00,WUHU216HW,2013-06-01 07:50:00,
2013-06-01 01:52:00,41.4,36.3,30.28,SSE,158,0.7,2.1,82,0.00,,,0.00,WUHU216HW,2013-06-01 07:52:00,
2013-06-01 01:54:00,41.4,36.3,30.28,SSE,158,1.1,2.1,82,0.00,,,0.00,WUHU216HW,2013-06-01 07:54:00,
2013-06-01 01:59:00,41.4,36.3,30.28,SSW,203,0.9,2.1,82,0.00,,,0.00,WUHU216HW,2013-06-01 07:59:00,
2013-06-01 02:04:00,41.4,36.3,30.28,SSW,203,1.3,2.1,82,0.00,,,0.00,WUHU216HW,2013-06-01 08:04:00,
2013-06-01 02:09:00,41.2,36.1,30.28,SSW,203,1.8,2.3,82,0.00,,,0.00,WUHU216HW,2013-06-01 08:09:00,
2013-06-01 02:14:00,41.4,36.5,30.28,South,180,1.8,2.6,83,0.00,,,0.00,WUHU216HW,2013-06-01 08:14:00,
2013-06-01 02:20:00,41.0,36.6,30.28,SSE,158,1.8,3.2,84,0.00,,,0.00,WUHU216HW,2013-06-01 08:20:00,
2013-06-01 02:25:00,41.0,36.6,30.28,SSE,158,1.6,3.2,84,0.00,,,0.00,WUHU216HW,2013-06-01 08:25:00,
2013-06-01 02:30:00,41.2,36.7,30.29,SE,135,1.1,2.6,84,0.00,,,0.00,WUHU216HW,2013-06-01 08:30:00,
2013-06-01 02:35:00,41.2,36.7,30.29,SSE,158,1.1,2.6,84,0.00,,,0.00,WUHU216HW,2013-06-01 08:35:00,
2013-06-01 02:40:00,40.9,36.4,30.28,South,180,2.2,2.6,84,0.00,,,0.00,WUHU216HW,2013-06-01 08:40:00,
2013-06-01 02:45:00,40.7,36.2,30.29,SSE,158,0.4,2.6,84,0.00,,,0.00,WUHU216HW,2013-06-01 08:45:00,
2013-06-01 02:50:00,40.5,36.0,30.28,South,180,2.5,2.9,84,0.00,,,0.00,WUHU216HW,2013-06-01 08:50:00,
2013-06-01 02:55:00,40.5,36.0,30.28,SSW,203,0.4,2.9,84,0.00,,,0.00,WUHU216HW,2013-06-01 08:55:00,
2013-06-01 02:56:00,40.3,35.8,30.28,SSW,203,0.9,2.9,84,0.00,,,0.00,WUHU216HW,2013-06-01 08:56:00,
2013-06-01 02:59:00,40.3,35.8,30.29,SW,225,0.4,2.3,84,0.00,,,0.00,WUHU216HW,2013-06-01 08:59:00,
2013-06-01 03:00:00,40.5,36.0,30.28,South,180,0.0,2.9,84,0.00,,,0.00,WUHU216HW,2013-06-01 09:00:00,
2013-06-01 03:01:00,40.3,35.8,30.28,SW,225,0.0,1.5,84,0.00,,,0.00,WUHU216HW,2013-06-01 09:01:00,
2013-06-01 03:04:00,40.1,35.6,30.28,SSW,203,0.4,1.5,84,0.00,,,0.00,WUHU216HW,2013-06-01 09:04:00,
2013-06-01 03:05:00,40.1,35.4,30.28,SSW,203,1.1,1.5,83,0.00,,,0.00,WUHU216HW,2013-06-01 09:05:00,
2013-06-01 03:10:00,40.0,35.2,30.28,SSW,203,0.4,1.3,83,0.00,,,0.00,WUHU216HW,2013-06-01 09:10:00,
2013-06-01 03:15:00,40.0,35.2,30.29,SW,225,2.5,3.2,83,0.00,,,0.00,WUHU216HW,2013-06-01 09:15:00,
2013-06-01 03:20:00,39.8,35.0,30.29,SW,225,1.3,3.2,83,0.00,,,0.00,WUHU216HW,2013-06-01 09:20:00,
2013-06-01 03:26:00,39.6,34.8,30.28,SW,225,2.0,3.4,83,0.00,,,0.00,WUHU216HW,2013-06-01 09:26:00,
2013-06-01 03:31:00,39.4,34.7,30.29,SW,225,0.7,3.4,83,0.00,,,0.00,WUHU216HW,2013-06-01 09:31:00,
2013-06-01 03:36:00,39.4,34.7,30.29,WSW,248,1.1,3.4,83,0.00,,,0.00,WUHU216HW,2013-06-01 09:36:00,
2013-06-01 03:41:00,39.2,34.6,30.28,SW,225,1.8,2.6,83,0.00,,,0.00,WUHU216HW,2013-06-01 09:41:00,
2013-06-01 03:46:00,39.2,34.6,30.28,WSW,248,1.8,2.9,83,0.00,,,0.00,WUHU216HW,2013-06-01 09:46:00,
2013-06-01 03:51:00,38.9,34.2,30.28,WSW,248,2.2,3.4,83,0.00,,,0.00,WUHU216HW,2013-06-01 09:51:00,
2013-06-01 03:56:00,38.7,34.0,30.28,WSW,248,0.4,3.4,83,0.00,,,0.00,WUHU216HW,2013-06-01 09:56:00,
2013-06-01 04:01:00,38.5,34.1,30.28,WSW,248,0.4,2.3,84,0.00,,,0.00,WUHU216HW,2013-06-01 10:01:00,
2013-06-01 04:06:00,38.5,34.1,30.28,WSW,248,0.0,0.8,84,0.00,,,0.00,WUHU216HW,2013-06-01 10:06:00,
2013-06-01 04:11:00,38.7,34.3,30.28,SE,135,0.0,0.5,84,0.00,,,0.00,WUHU216HW,2013-06-01 10:11:00,
2013-06-01 04:16:00,38.5,33.9,30.28,SE,135,0.0,0.0,83,0.00,,,0.00,WUHU216HW,2013-06-01 10:16:00,
2013-06-01 04:21:00,38.5,33.9,30.28,SE,135,0.0,0.0,83,0.00,,,0.00,WUHU216HW,2013-06-01 10:21:00,
2013-06-01 04:24:00,38.0,33.6,30.28,SE,135,0.4,1.1,84,0.00,,,0.00,WUHU216HW,2013-06-01 10:24:00,
2013-06-01 04:26:00,38.3,33.9,30.28,SE,135,0.0,0.0,84,0.00,,,0.00,WUHU216HW,2013-06-01 10:26:00,
2013-06-01 04:27:00,37.8,33.4,30.28,ESE,113,0.9,1.3,84,0.00,,,0.00,WUHU216HW,2013-06-01 10:27:00,
2013-06-01 04:31:00,38.2,33.8,30.28,ESE,113,0.7,1.1,84,0.00,,,0.00,WUHU216HW,2013-06-01 10:31:00,
2013-06-01 04:34:00,37.3,32.9,30.28,East,90,1.3,2.1,84,0.00,,,0.00,WUHU216HW,2013-06-01 10:34:00,
2013-06-01 04:35:00,37.3,32.9,30.28,East,90,1.3,2.1,84,0.00,,,0.00,WUHU216HW,2013-06-01 10:35:00,
2013-06-01 04:36:00,37.3,32.9,30.28,East,90,1.1,2.1,84,0.00,,,0.00,WUHU216HW,2013-06-01 10:36:00,
2013-06-01 04:41:00,37.1,32.9,30.28,ESE,113,1.1,2.1,85,0.00,,,0.00,WUHU216HW,2013-06-01 10:41:00,
2013-06-01 04:46:00,37.1,32.9,30.28,ESE,113,0.4,2.1,85,0.00,,,0.00,WUHU216HW,2013-06-01 10:46:00,
2013-06-01 04:51:00,37.1,32.9,30.28,East,90,0.0,1.5,85,0.00,,,0.00,WUHU216HW,2013-06-01 10:51:00,
2013-06-01 04:56:00,37.1,32.9,30.28,East,90,0.7,1.3,85,0.00,,,0.00,WUHU216HW,2013-06-01 10:56:00,
2013-06-01 05:01:00,37.1,32.9,30.28,East,90,1.3,1.5,85,0.00,,,0.00,WUHU216HW,2013-06-01 11:01:00,
2013-06-01 05:06:00,36.9,32.8,30.27,East,90,0.0,2.1,85,0.00,,,0.00,WUHU216HW,2013-06-01 11:06:00,
2013-06-01 05:12:00,36.7,32.3,30.27,East,90,0.0,1.9,84,0.00,,,0.00,WUHU216HW,2013-06-01 11:12:00,
2013-06-01 05:17:00,36.7,32.6,30.28,SE,135,0.4,1.1,85,0.00,,,0.00,WUHU216HW,2013-06-01 11:17:00,
2013-06-01 05:22:00,36.7,32.6,30.28,SSE,158,0.0,1.1,85,0.00,,,0.00,WUHU216HW,2013-06-01 11:22:00,
2013-06-01 05:27:00,36.7,32.6,30.28,SSE,158,0.0,1.1,85,0.00,,,0.00,WUHU216HW,2013-06-01 11:27:00,
2013-06-01 05:32:00,36.9,32.8,30.28,SSE,158,0.0,0.2,85,0.00,,,0.00,WUHU216HW,2013-06-01 11:32:00,
2013-06-01 05:37:00,36.9,33.0,30.28,South,180,0.2,0.5,86,0.00,,,0.00,WUHU216HW,2013-06-01 11:37:00,
2013-06-01 05:39:00,36.9,33.0,30.28,SSE,158,0.0,0.5,86,0.00,,,0.00,WUHU216HW,2013-06-01 11:39:00,
2013-06-01 05:41:00,36.9,33.0,30.27,SSE,158,0.4,0.5,86,0.00,,,0.00,WUHU216HW,2013-06-01 11:41:00,
2013-06-01 05:42:00,36.9,32.8,30.28,South,180,0.2,0.5,85,0.00,,,0.00,WUHU216HW,2013-06-01 11:42:00,
2013-06-01 05:44:00,36.7,32.9,30.27,South,180,1.1,1.3,86,0.00,,,0.00,WUHU216HW,2013-06-01 11:44:00,
2013-06-01 05:46:00,36.7,32.9,30.27,South,180,0.2,1.3,86,0.00,,,0.00,WUHU216HW,2013-06-01 11:46:00,
2013-06-01 05:47:00,36.9,33.0,30.28,South,180,0.2,0.5,86,0.00,,,0.00,WUHU216HW,2013-06-01 11:47:00,
2013-06-01 05:49:00,36.5,32.4,30.27,SW,225,0.0,1.3,85,0.00,,,0.00,WUHU216HW,2013-06-01 11:49:00,
2013-06-01 05:50:00,36.5,32.4,30.27,SW,225,0.4,1.3,85,0.00,,,0.00,WUHU216HW,2013-06-01 11:50:00,
2013-06-01 05:52:00,36.4,32.2,30.27,SSW,203,0.4,1.3,85,0.00,,,0.00,WUHU216HW,2013-06-01 11:52:00,
2013-06-01 05:53:00,36.4,32.2,30.27,South,180,0.0,1.3,85,0.00,,,0.00,WUHU216HW,2013-06-01 11:53:00,
2013-06-01 05:54:00,36.4,32.2,30.27,SSE,158,0.4,1.1,85,0.00,,,0.00,WUHU216HW,2013-06-01 11:54:00,
2013-06-01 05:55:00,36.4,32.2,30.27,SSE,158,0.0,1.1,85,0.00,,,0.00,WUHU216HW,2013-06-01 11:55:00,
2013-06-01 05:57:00,36.4,32.2,30.27,SE,135,0.0,1.1,85,0.00,,,0.00,WUHU216HW,2013-06-01 11:57:00,
2013-06-01 05:59:00,36.4,32.5,30.27,SE,135,0.0,1.1,86,0.00,,,0.00,WUHU216HW,2013-06-01 11:59:00,
2013-06-01 06:00:00,36.4,32.5,30.27,SSE,158,0.4,1.1,86,0.00,,,0.00,WUHU216HW,2013-06-01 12:00:00,
2013-06-01 06:01:00,36.4,32.5,30.28,SSE,158,0.4,1.1,86,0.00,,,0.00,WUHU216HW,2013-06-01 12:01:00,
2013-06-01 06:02:00,36.4,32.5,30.27,SSE,158,1.1,1.3,86,0.00,,,0.00,WUHU216HW,2013-06-01 12:02:00,
2013-06-01 06:03:00,36.4,32.5,30.27,SSE,158,1.1,1.3,86,0.00,,,0.00,WUHU216HW,2013-06-01 12:03:00,
2013-06-01 06:05:00,36.4,32.5,30.27,SSE,158,1.1,1.3,86,0.00,,,0.00,WUHU216HW,2013-06-01 12:05:00,
2013-06-01 06:07:00,36.4,32.8,30.27,SSE,158,1.1,1.3,87,0.00,,,0.00,WUHU216HW,2013-06-01 12:07:00,
2013-06-01 06:08:00,36.4,32.8,30.27,SSE,158,0.4,1.3,87,0.00,,,0.00,WUHU216HW,2013-06-01 12:08:00,
2013-06-01 06:09:00,36.4,32.8,30.27,SSE,158,0.7,1.3,87,0.00,,,0.00,WUHU216HW,2013-06-01 12:09:00,
2013-06-01 06:13:00,36.2,32.3,30.27,South,180,0.2,1.3,86,0.00,,,0.00,WUHU216HW,2013-06-01 12:13:00,
2013-06-01 06:15:00,36.2,32.3,30.28,South,180,0.4,1.3,86,0.00,,,0.00,WUHU216HW,2013-06-01 12:15:00,
2013-06-01 06:16:00,36.2,32.3,30.28,South,180,0.4,1.3,86,0.00,,,0.00,WUHU216HW,2013-06-01 12:16:00,
2013-06-01 06:17:00,36.2,32.3,30.28,South,180,0.4,1.3,86,0.00,,,0.00,WUHU216HW,2013-06-01 12:17:00,
2013-06-01 06:18:00,36.2,32.3,30.28,South,180,0.4,1.3,86,0.00,,,0.00,WUHU216HW,2013-06-01 12:18:00,
2013-06-01 06:19:00,36.0,32.1,30.28,South,180,0.4,1.3,86,0.00,,,0.00,WUHU216HW,2013-06-01 12:19:00,
2013-06-01 06:22:00,36.0,32.1,30.27,South,180,1.1,1.3,86,0.00,,,0.00,WUHU216HW,2013-06-01 12:22:00,
2013-06-01 06:23:00,36.0,32.1,30.28,SSW,203,0.4,1.3,86,0.00,,,0.00,WUHU216HW,2013-06-01 12:23:00,
2013-06-01 06:26:00,36.2,32.3,30.27,SW,225,0.4,1.5,86,0.00,,,0.00,WUHU216HW,2013-06-01 12:26:00,
2013-06-01 06:28:00,36.2,32.3,30.27,SW,225,0.0,1.5,86,0.00,,,0.00,WUHU216HW,2013-06-01 12:28:00,
2013-06-01 06:31:00,36.2,32.3,30.27,SW,225,0.2,1.5,86,0.00,,,0.00,WUHU216HW,2013-06-01 12:31:00,
2013-06-01 06:32:00,36.4,32.5,30.28,SW,225,0.2,1.5,86,0.00,,,0.00,WUHU216HW,2013-06-01 12:32:00,
2013-06-01 06:33:00,36.4,32.5,30.28,SW,225,0.4,1.5,86,0.00,,,0.00,WUHU216HW,2013-06-01 12:33:00,
2013-06-01 06:37:00,36.4,32.5,30.28,SW,225,0.0,0.8,86,0.00,,,0.00,WUHU216HW,2013-06-01 12:37:00,
2013-06-01 06:38:00,36.4,32.8,30.28,SW,225,0.2,0.8,87,0.00,,,0.00,WUHU216HW,2013-06-01 12:38:00,
2013-06-01 06:39:00,36.5,32.9,30.28,SSW,203,0.4,1.1,87,0.00,,,0.00,WUHU216HW,2013-06-01 12:39:00,
2013-06-01 06:42:00,36.5,32.9,30.28,SSW,203,0.0,1.3,87,0.00,,,0.00,WUHU216HW,2013-06-01 12:42:00,
2013-06-01 06:43:00,36.7,33.1,30.28,SW,225,0.4,1.3,87,0.00,,,0.00,WUHU216HW,2013-06-01 12:43:00,
2013-06-01 06:45:00,36.7,33.1,30.28,SW,225,0.9,1.5,87,0.00,,,0.00,WUHU216HW,2013-06-01 12:45:00,
2013-06-01 06:46:00,36.9,33.3,30.28,SW,225,1.6,1.9,87,0.00,,,0.00,WUHU216HW,2013-06-01 12:46:00,
2013-06-01 06:48:00,36.9,33.3,30.28,WSW,248,1.3,1.9,87,0.00,,,0.00,WUHU216HW,2013-06-01 12:48:00,
2013-06-01 06:49:00,36.9,33.3,30.28,WSW,248,1.6,2.1,87,0.00,,,0.00,WUHU216HW,2013-06-01 12:49:00,
2013-06-01 06:51:00,37.1,33.5,30.28,WSW,248,1.6,2.1,87,0.00,,,0.00,WUHU216HW,2013-06-01 12:51:00,
2013-06-01 06:53:00,37.1,33.5,30.28,WSW,248,1.1,2.1,87,0.00,,,0.00,WUHU216HW,2013-06-01 12:53:00,
2013-06-01 06:55:00,37.3,33.7,30.28,WSW,248,2.2,2.9,87,0.00,,,0.00,WUHU216HW,2013-06-01 12:55:00,
2013-06-01 06:56:00,37.3,33.7,30.28,West,270,1.8,2.9,87,0.00,,,0.00,WUHU216HW,2013-06-01 12:56:00,
2013-06-01 06:58:00,37.4,33.8,30.28,West,270,0.9,2.9,87,0.00,,,0.00,WUHU216HW,2013-06-01 12:58:00,
2013-06-01 07:01:00,37.4,33.8,30.28,WNW,293,0.4,2.9,87,0.00,,,0.00,WUHU216HW,2013-06-01 13:01:00,
2013-06-01 07:03:00,37.6,34.0,30.27,West,270,1.1,2.9,87,0.00,,,0.00,WUHU216HW,2013-06-01 13:03:00,
2013-06-01 07:04:00,37.6,34.0,30.27,West,270,1.1,2.9,87,0.00,,,0.00,WUHU216HW,2013-06-01 13:04:00,
2013-06-01 07:07:00,37.8,34.2,30.27,West,270,0.7,2.1,87,0.00,,,0.00,WUHU216HW,2013-06-01 13:07:00,
2013-06-01 07:09:00,37.8,34.2,30.27,West,270,0.4,2.1,87,0.00,,,0.00,WUHU216HW,2013-06-01 13:09:00,
2013-06-01 07:11:00,37.8,34.2,30.27,West,270,0.0,2.1,87,0.00,,,0.00,WUHU216HW,2013-06-01 13:11:00,
2013-06-01 07:12:00,37.8,34.2,30.27,West,270,0.0,2.1,87,0.00,,,0.00,WUHU216HW,2013-06-01 13:12:00,
2013-06-01 07:13:00,37.8,34.2,30.27,WNW,293,0.0,1.9,87,0.00,,,0.00,WUHU216HW,2013-06-01 13:13:00,
2013-06-01 07:14:00,37.8,34.2,30.27,WNW,293,0.0,1.9,87,0.00,,,0.00,WUHU216HW,2013-06-01 13:14:00,
2013-06-01 07:15:00,37.8,34.2,30.27,NNW,338,0.2,1.3,87,0.00,,,0.00,WUHU216HW,2013-06-01 13:15:00,
2013-06-01 07:16:00,38.0,34.4,30.28,NNW,338,0.7,1.3,87,0.00,,,0.00,WUHU216HW,2013-06-01 13:16:00,
2013-06-01 07:18:00,38.0,34.4,30.27,NW,315,0.2,1.3,87,0.00,,,0.00,WUHU216HW,2013-06-01 13:18:00,
2013-06-01 07:19:00,38.2,34.6,30.27,NNW,338,1.1,1.3,87,0.00,,,0.00,WUHU216HW,2013-06-01 13:19:00,
2013-06-01 07:20:00,38.2,34.6,30.27,NNW,338,1.1,1.3,87,0.00,,,0.00,WUHU216HW,2013-06-01 13:20:00,
2013-06-01 07:23:00,38.2,34.6,30.27,NW,315,1.8,2.1,87,0.00,,,0.00,WUHU216HW,2013-06-01 13:23:00,
2013-06-01 07:24:00,38.3,34.7,30.27,NW,315,1.1,2.3,87,0.00,,,0.00,WUHU216HW,2013-06-01 13:24:00,
2013-06-01 07:27:00,38.3,35.1,30.27,WNW,293,0.9,2.3,88,0.00,,,0.00,WUHU216HW,2013-06-01 13:27:00,
2013-06-01 07:28:00,38.3,35.1,30.27,NW,315,1.1,2.3,88,0.00,,,0.00,WUHU216HW,2013-06-01 13:28:00,
2013-06-01 07:29:00,38.3,35.1,30.28,WNW,293,0.7,2.3,88,0.00,,,0.00,WUHU216HW,2013-06-01 13:29:00,
2013-06-01 07:33:00,38.5,35.3,30.28,NW,315,0.2,2.3,88,0.00,,,0.00,WUHU216HW,2013-06-01 13:33:00,
2013-06-01 07:34:00,38.5,35.3,30.28,NW,315,0.0,2.1,88,0.00,,,0.00,WUHU216HW,2013-06-01 13:34:00,
2013-06-01 07:36:00,38.5,35.3,30.27,NW,315,0.0,2.1,88,0.00,,,0.00,WUHU216HW,2013-06-01 13:36:00,
2013-06-01 07:39:00,38.5,35.3,30.27,North,0,0.4,2.1,88,0.00,,,0.00,WUHU216HW,2013-06-01 13:39:00,
2013-06-01 07:44:00,38.5,35.3,30.27,North,0,0.0,1.1,88,0.00,,,0.00,WUHU216HW,2013-06-01 13:44:00,
2013-06-01 07:49:00,39.1,35.8,30.27,SSE,158,0.0,0.8,88,0.00,,,0.00,WUHU216HW,2013-06-01 13:49:00,
2013-06-01 07:54:00,39.2,36.0,30.27,WSW,248,0.0,0.5,88,0.00,,,0.00,WUHU216HW,2013-06-01 13:54:00,
2013-06-01 08:00:00,39.2,36.0,30.27,SW,225,1.1,2.3,88,0.00,,,0.00,WUHU216HW,2013-06-01 14:00:00,
2013-06-01 08:04:00,39.6,36.4,30.27,West,270,1.3,2.3,88,0.00,,,0.00,WUHU216HW,2013-06-01 14:04:00,
2013-06-01 08:05:00,39.6,36.4,30.27,West,270,1.3,2.3,88,0.00,,,0.00,WUHU216HW,2013-06-01 14:05:00,
2013-06-01 08:10:00,39.6,36.4,30.27,West,270,1.3,2.3,88,0.00,,,0.00,WUHU216HW,2013-06-01 14:10:00,
2013-06-01 08:15:00,39.8,36.8,30.27,NW,315,0.4,2.3,89,0.00,,,0.00,WUHU216HW,2013-06-01 14:15:00,
2013-06-01 08:20:00,40.7,37.4,30.27,WNW,293,0.7,2.1,88,0.00,,,0.00,WUHU216HW,2013-06-01 14:20:00,
2013-06-01 08:25:00,41.2,37.9,30.27,NNW,338,0.7,2.1,88,0.00,,,0.00,WUHU216HW,2013-06-01 14:25:00,
2013-06-01 08:30:00,41.2,37.9,30.27,NNW,338,0.0,2.1,88,0.00,,,0.00,WUHU216HW,2013-06-01 14:30:00,
2013-06-01 08:35:00,41.6,38.3,30.27,North,0,0.7,2.1,88,0.00,,,0.00,WUHU216HW,2013-06-01 14:35:00,
2013-06-01 08:40:00,42.3,39.0,30.26,North,0,0.4,1.3,88,0.00,,,0.00,WUHU216HW,2013-06-01 14:40:00,
2013-06-01 08:45:00,42.8,39.3,30.26,NW,315,0.4,2.3,87,0.00,,,0.00,WUHU216HW,2013-06-01 14:45:00,
2013-06-01 08:50:00,43.2,39.6,30.26,WSW,248,0.0,2.3,87,0.00,,,0.00,WUHU216HW,2013-06-01 14:50:00,
2013-06-01 08:55:00,43.7,40.4,30.26,WSW,248,1.3,1.5,88,0.00,,,0.00,WUHU216HW,2013-06-01 14:55:00,
2013-06-01 09:00:00,44.3,41.0,30.26,WSW,248,1.1,2.1,88,0.00,,,0.00,WUHU216HW,2013-06-01 15:00:00,
2013-06-01 09:05:00,44.6,41.1,30.26,WNW,293,0.9,2.1,87,0.00,,,0.00,WUHU216HW,2013-06-01 15:05:00,
2013-06-01 09:09:00,45.2,41.6,30.26,NNW,338,0.0,2.1,87,0.00,,,0.00,WUHU216HW,2013-06-01 15:09:00,
2013-06-01 09:10:00,45.2,41.6,30.26,West,270,0.2,2.1,87,0.00,,,0.00,WUHU216HW,2013-06-01 15:10:00,
2013-06-01 09:11:00,45.4,41.4,30.26,North,0,0.9,2.1,86,0.00,,,0.00,WUHU216HW,2013-06-01 15:11:00,
2013-06-01 09:12:00,45.4,41.4,30.26,North,0,0.7,1.9,86,0.00,,,0.00,WUHU216HW,2013-06-01 15:12:00,
2013-06-01 09:13:00,45.4,41.4,30.26,WNW,293,0.9,1.9,86,0.00,,,0.00,WUHU216HW,2013-06-01 15:13:00,
2013-06-01 09:15:00,45.5,41.6,30.26,NNW,338,1.3,1.5,86,0.00,,,0.00,WUHU216HW,2013-06-01 15:15:00,
2013-06-01 09:18:00,45.7,41.8,30.26,NE,45,1.6,2.3,86,0.00,,,0.00,WUHU216HW,2013-06-01 15:18:00,
2013-06-01 09:19:00,45.7,41.5,30.26,NE,45,0.0,2.3,85,0.00,,,0.00,WUHU216HW,2013-06-01 15:19:00,
2013-06-01 09:20:00,45.7,41.5,30.26,NE,45,0.0,2.3,85,0.00,,,0.00,WUHU216HW,2013-06-01 15:20:00,
2013-06-01 09:21:00,45.9,41.7,30.26,East,90,1.8,2.3,85,0.00,,,0.00,WUHU216HW,2013-06-01 15:21:00,
2013-06-01 09:25:00,46.8,43.2,30.25,ESE,113,1.3,4.7,87,0.00,,,0.00,WUHU216HW,2013-06-01 15:25:00,
2013-06-01 09:30:00,45.9,41.7,30.26,East,90,1.8,2.3,85,0.00,,,0.00,WUHU216HW,2013-06-01 15:30:00,
2013-06-01 09:36:00,47.9,43.6,30.25,East,90,1.8,4.7,85,0.00,,,0.00,WUHU216HW,2013-06-01 15:36:00,
2013-06-01 09:41:00,49.3,44.7,30.25,NNW,338,0.0,3.6,84,0.00,,,0.00,WUHU216HW,2013-06-01 15:41:00,
2013-06-01 09:46:00,49.9,45.2,30.25,South,180,3.4,4.7,84,0.00,,,0.00,WUHU216HW,2013-06-01 15:46:00,
2013-06-01 09:51:00,50.8,46.1,30.25,NNE,23,3.4,4.7,84,0.00,,,0.00,WUHU216HW,2013-06-01 15:51:00,
2013-06-01 09:56:00,51.1,45.8,30.25,WNW,293,1.3,4.7,82,0.00,,,0.00,WUHU216HW,2013-06-01 15:56:00,
2013-06-01 10:01:00,51.3,46.0,30.24,ENE,68,3.6,6.0,82,0.00,,,0.00,WUHU216HW,2013-06-01 16:01:00,
2013-06-01 10:06:00,51.1,45.8,30.25,ENE,68,0.7,4.0,82,0.00,,,0.00,WUHU216HW,2013-06-01 16:06:00,
2013-06-01 10:11:00,52.0,46.7,30.24,NNW,338,2.5,6.0,82,0.00,,,0.00,WUHU216HW,2013-06-01 16:11:00,
2013-06-01 10:16:00,53.5,47.2,30.24,ENE,68,5.4,6.3,79,0.00,,,0.00,WUHU216HW,2013-06-01 16:16:00,
2013-06-01 10:21:00,53.6,47.0,30.23,East,90,4.3,8.9,78,0.00,,,0.00,WUHU216HW,2013-06-01 16:21:00,
2013-06-01 10:22:00,54.7,48.0,30.23,ESE,113,3.1,8.9,78,0.00,,,0.00,WUHU216HW,2013-06-01 16:22:00,
2013-06-01 10:24:00,54.9,48.2,30.23,East,90,3.4,8.9,78,0.00,,,0.00,WUHU216HW,2013-06-01 16:24:00,
2013-06-01 10:26:00,55.1,47.3,30.23,SE,135,3.4,8.9,75,0.00,,,0.00,WUHU216HW,2013-06-01 16:26:00,
2013-06-01 10:27:00,55.1,47.6,30.23,ESE,113,2.9,7.6,76,0.00,,,0.00,WUHU216HW,2013-06-01 16:27:00,
2013-06-01 10:28:00,55.3,48.2,30.23,East,90,4.7,7.6,77,0.00,,,0.00,WUHU216HW,2013-06-01 16:28:00,
2013-06-01 10:31:00,55.4,48.3,30.23,ENE,68,2.2,7.6,77,0.00,,,0.00,WUHU216HW,2013-06-01 16:31:00,
2013-06-01 10:33:00,55.8,48.0,30.22,SE,135,3.8,7.6,75,0.00,,,0.00,WUHU216HW,2013-06-01 16:33:00,
2013-06-01 10:36:00,55.1,47.6,30.23,ESE,113,2.9,7.6,76,0.00,,,0.00,WUHU216HW,2013-06-01 16:36:00,
2013-06-01 10:37:00,56.2,48.0,30.22,East,90,5.4,10.4,74,0.00,,,0.00,WUHU216HW,2013-06-01 16:37:00,
2013-06-01 10:38:00,56.3,47.4,30.22,East,90,5.4,10.4,72,0.00,,,0.00,WUHU216HW,2013-06-01 16:38:00,
2013-06-01 10:40:00,56.5,48.0,30.22,East,90,4.3,10.4,73,0.00,,,0.00,WUHU216HW,2013-06-01 16:40:00,
2013-06-01 10:41:00,56.5,48.0,30.22,SE,135,7.4,10.4,73,0.00,,,0.00,WUHU216HW,2013-06-01 16:41:00,
2013-06-01 10:43:00,56.7,47.4,30.22,SSE,158,2.5,10.4,71,0.00,,,0.00,WUHU216HW,2013-06-01 16:43:00,
2013-06-01 10:44:00,56.7,48.1,30.22,SSE,158,3.4,10.4,73,0.00,,,0.00,WUHU216HW,2013-06-01 16:44:00,
2013-06-01 10:46:00,56.2,48.0,30.22,East,90,5.4,10.4,74,0.00,,,0.00,WUHU216HW,2013-06-01 16:46:00,
2013-06-01 10:48:00,57.2,49.0,30.22,North,0,1.8,8.7,74,0.00,,,0.00,WUHU216HW,2013-06-01 16:48:00,
2013-06-01 10:49:00,57.4,49.1,30.22,ENE,68,1.6,8.7,74,0.00,,,0.00,WUHU216HW,2013-06-01 16:49:00,
2013-06-01 10:50:00,57.4,48.8,30.22,ENE,68,4.9,5.7,73,0.00,,,0.00,WUHU216HW,2013-06-01 16:50:00,
2013-06-01 10:52:00,57.4,48.8,30.22,ENE,68,4.9,8.7,73,0.00,,,0.00,WUHU216HW,2013-06-01 16:52:00,
2013-06-01 10:57:00,57.4,48.8,30.22,ENE,68,4.9,5.7,73,0.00,,,0.00,WUHU216HW,2013-06-01 16:57:00,
2013-06-01 11:01:00,58.7,47.4,30.22,SE,135,6.0,8.1,66,0.00,,,0.00,WUHU216HW,2013-06-01 17:01:00,
2013-06-01 11:02:00,58.7,48.5,30.21,East,90,6.7,8.1,69,0.00,,,0.00,WUHU216HW,2013-06-01 17:02:00,
2013-06-01 11:03:00,58.9,47.5,30.22,ENE,68,2.0,8.1,66,0.00,,,0.00,WUHU216HW,2013-06-01 17:03:00,
2013-06-01 11:04:00,58.9,47.9,30.21,ESE,113,2.5,8.1,67,0.00,,,0.00,WUHU216HW,2013-06-01 17:04:00,
2013-06-01 11:07:00,58.9,47.5,30.21,East,90,6.3,8.7,66,0.00,,,0.00,WUHU216HW,2013-06-01 17:07:00,
2013-06-01 11:08:00,59.0,48.1,30.21,East,90,4.7,8.7,67,0.00,,,0.00,WUHU216HW,2013-06-01 17:08:00,
2013-06-01 11:12:00,59.2,47.0,30.21,ESE,113,6.3,8.7,64,0.00,,,0.00,WUHU216HW,2013-06-01 17:12:00,
2013-06-01 11:14:00,59.2,46.2,30.21,NE,45,4.0,8.7,62,0.00,,,0.00,WUHU216HW,2013-06-01 17:14:00,
2013-06-01 11:17:00,59.2,46.2,30.21,ENE,68,6.0,7.8,62,0.00,,,0.00,WUHU216HW,2013-06-01 17:17:00,
2013-06-01 11:18:00,59.2,46.2,30.21,ESE,113,3.1,7.4,62,0.00,,,0.00,WUHU216HW,2013-06-01 17:18:00,
2013-06-01 11:19:00,59.2,47.0,30.21,SE,135,1.6,7.4,64,0.00,,,0.00,WUHU216HW,2013-06-01 17:19:00,
2013-06-01 11:21:00,59.4,47.2,30.21,ENE,68,6.9,8.1,64,0.00,,,0.00,WUHU216HW,2013-06-01 17:21:00,
2013-06-01 11:22:00,59.4,47.2,30.21,East,90,7.6,8.9,64,0.00,,,0.00,WUHU216HW,2013-06-01 17:22:00,
2013-06-01 11:23:00,59.4,47.2,30.21,East,90,7.6,8.9,64,0.00,,,0.00,WUHU216HW,2013-06-01 17:23:00,
2013-06-01 11:24:00,59.6,46.5,30.21,ESE,113,6.0,8.9,62,0.00,,,0.00,WUHU216HW,2013-06-01 17:24:00,
2013-06-01 11:25:00,59.6,45.3,30.21,SE,135,6.9,10.2,59,0.00,,,0.00,WUHU216HW,2013-06-01 17:25:00,
2013-06-01 11:27:00,59.8,46.7,30.20,SE,135,5.4,10.2,62,0.00,,,0.00,WUHU216HW,2013-06-01 17:27:00,
2013-06-01 11:28:00,59.8,46.7,30.20,ENE,68,4.3,10.2,62,0.00,,,0.00,WUHU216HW,2013-06-01 17:28:00,
2013-06-01 11:29:00,59.8,46.7,30.20,East,90,7.8,10.2,62,0.00,,,0.00,WUHU216HW,2013-06-01 17:29:00,
2013-06-01 11:30:00,59.8,46.7,30.20,East,90,5.1,10.2,62,0.00,,,0.00,WUHU216HW,2013-06-01 17:30:00,
2013-06-01 11:31:00,59.9,46.9,30.20,ESE,113,6.7,10.8,62,0.00,,,0.00,WUHU216HW,2013-06-01 17:31:00,
2013-06-01 11:33:00,60.1,45.3,30.20,East,90,4.3,10.8,58,0.00,,,0.00,WUHU216HW,2013-06-01 17:33:00,
2013-06-01 11:34:00,60.1,46.7,30.20,ENE,68,6.5,10.8,61,0.00,,,0.00,WUHU216HW,2013-06-01 17:34:00,
2013-06-01 11:35:00,60.3,46.9,30.20,ENE,68,9.4,11.0,61,0.00,,,0.00,WUHU216HW,2013-06-01 17:35:00,
2013-06-01 11:37:00,60.5,46.2,30.20,East,90,5.8,11.0,59,0.00,,,0.00,WUHU216HW,2013-06-01 17:37:00,
2013-06-01 11:38:00,60.7,45.4,30.20,ESE,113,9.8,11.5,57,0.00,,,0.00,WUHU216HW,2013-06-01 17:38:00,
2013-06-01 11:39:00,60.7,45.4,30.20,East,90,6.3,11.5,57,0.00,,,0.00,WUHU216HW,2013-06-01 17:39:00,
2013-06-01 11:41:00,60.7,45.4,30.19,ESE,113,6.9,11.5,57,0.00,,,0.00,WUHU216HW,2013-06-01 17:41:00,
2013-06-01 11:43:00,60.8,47.0,30.19,ENE,68,5.4,11.5,60,0.00,,,0.00,WUHU216HW,2013-06-01 17:43:00,
2013-06-01 11:45:00,60.8,46.0,30.19,ESE,113,3.4,11.5,58,0.00,,,0.00,WUHU216HW,2013-06-01 17:45:00,
2013-06-01 11:48:00,61.0,45.7,30.19,ESE,113,10.3,12.1,57,0.00,,,0.00,WUHU216HW,2013-06-01 17:48:00,
2013-06-01 11:49:00,61.0,45.2,30.19,East,90,10.7,12.5,56,0.00,,,0.00,WUHU216HW,2013-06-01 17:49:00,
2013-06-01 11:50:00,61.2,45.4,30.19,ESE,113,7.6,12.5,56,0.00,,,0.00,WUHU216HW,2013-06-01 17:50:00,
2013-06-01 11:52:00,61.2,45.4,30.19,ESE,113,8.5,12.5,56,0.00,,,0.00,WUHU216HW,2013-06-01 17:52:00,
2013-06-01 11:53:00,61.4,45.6,30.19,East,90,13.0,15.7,56,0.00,,,0.00,WUHU216HW,2013-06-01 17:53:00,
2013-06-01 11:54:00,61.4,45.0,30.19,East,90,9.4,15.7,55,0.00,,,0.00,WUHU216HW,2013-06-01 17:54:00,
2013-06-01 11:58:00,61.4,45.0,30.19,East,90,7.6,15.7,55,0.00,,,0.00,WUHU216HW,2013-06-01 17:58:00,
2013-06-01 12:03:00,61.6,45.2,30.18,East,90,7.6,15.7,55,0.00,,,0.00,WUHU216HW,2013-06-01 18:03:00,
2013-06-01 12:06:00,61.7,44.4,30.18,ESE,113,8.9,13.6,53,0.00,,,0.00,WUHU216HW,2013-06-01 18:06:00,
2013-06-01 12:07:00,61.7,44.4,30.18,East,90,10.7,13.6,53,0.00,,,0.00,WUHU216HW,2013-06-01 18:07:00,
2013-06-01 12:08:00,61.6,45.2,30.18,East,90,7.6,15.7,55,0.00,,,0.00,WUHU216HW,2013-06-01 18:08:00,
2013-06-01 12:09:00,61.9,44.6,30.18,ENE,68,9.8,13.6,53,0.00,,,0.00,WUHU216HW,2013-06-01 18:09:00,
2013-06-01 12:10:00,62.1,45.2,30.18,ESE,113,5.4,13.6,54,0.00,,,0.00,WUHU216HW,2013-06-01 18:10:00,
2013-06-01 12:12:00,62.1,45.2,30.17,East,90,10.5,13.6,54,0.00,,,0.00,WUHU216HW,2013-06-01 18:12:00,
2013-06-01 12:13:00,61.7,43.9,30.18,ESE,113,11.4,13.6,52,0.00,,,0.00,WUHU216HW,2013-06-01 18:13:00,
2013-06-01 12:15:00,62.5,44.1,30.17,ENE,68,11.0,16.5,51,0.00,,,0.00,WUHU216HW,2013-06-01 18:15:00,
2013-06-01 12:17:00,62.6,44.7,30.17,ENE,68,8.5,16.5,52,0.00,,,0.00,WUHU216HW,2013-06-01 18:17:00,
2013-06-01 12:18:00,62.6,44.2,30.17,ESE,113,9.4,16.5,51,0.00,,,0.00,WUHU216HW,2013-06-01 18:18:00,
2013-06-01 12:24:00,62.8,42.8,30.17,ESE,113,11.9,16.5,48,0.00,,,0.00,WUHU216HW,2013-06-01 18:24:00,
2013-06-01 12:29:00,62.6,44.2,30.17,SE,135,10.1,15.0,51,0.00,,,0.00,WUHU216HW,2013-06-01 18:29:00,
2013-06-01 12:34:00,62.8,42.8,30.17,East,90,8.9,13.9,48,0.00,,,0.00,WUHU216HW,2013-06-01 18:34:00,
2013-06-01 12:39:00,63.0,44.1,30.17,East,90,8.1,14.2,50,0.00,,,0.00,WUHU216HW,2013-06-01 18:39:00,
2013-06-01 12:44:00,63.4,44.9,30.17,SE,135,8.5,14.2,51,0.00,,,0.00,WUHU216HW,2013-06-01 18:44:00,
2013-06-01 12:49:00,63.2,45.2,30.17,East,90,8.5,11.5,52,0.00,,,0.00,WUHU216HW,2013-06-01 18:49:00,
2013-06-01 12:54:00,63.5,44.6,30.16,ENE,68,9.6,13.3,50,0.00,,,0.00,WUHU216HW,2013-06-01 18:54:00,
2013-06-01 12:59:00,63.7,44.7,30.16,ENE,68,7.4,13.3,50,0.00,,,0.00,WUHU216HW,2013-06-01 18:59:00,
2013-06-01 13:04:00,64.1,45.6,30.16,East,90,7.4,13.3,51,0.00,,,0.00,WUHU216HW,2013-06-01 19:04:00,
2013-06-01 13:09:00,64.4,43.0,30.15,SE,135,8.5,17.8,46,0.00,,,0.00,WUHU216HW,2013-06-01 19:09:00,
2013-06-01 13:14:00,64.4,44.2,30.15,East,90,11.2,17.8,48,0.00,,,0.00,WUHU216HW,2013-06-01 19:14:00,
2013-06-01 13:19:00,64.4,44.2,30.15,ENE,68,4.7,15.9,48,0.00,,,0.00,WUHU216HW,2013-06-01 19:19:00,
2013-06-01 13:24:00,64.6,43.8,30.15,East,90,7.6,15.9,47,0.00,,,0.00,WUHU216HW,2013-06-01 19:24:00,
2013-06-01 13:25:00,65.0,44.2,30.14,ESE,113,11.4,15.9,47,0.00,,,0.00,WUHU216HW,2013-06-01 19:25:00,
2013-06-01 13:29:00,64.8,44.6,30.15,NE,45,6.9,15.9,48,0.00,,,0.00,WUHU216HW,2013-06-01 19:29:00,
2013-06-01 13:34:00,65.0,44.2,30.14,ESE,113,11.4,15.9,47,0.00,,,0.00,WUHU216HW,2013-06-01 19:34:00,
2013-06-01 13:39:00,65.3,43.4,30.14,ESE,113,8.7,13.3,45,0.00,,,0.00,WUHU216HW,2013-06-01 19:39:00,
2013-06-01 13:44:00,65.3,43.4,30.14,ENE,68,10.7,14.2,45,0.00,,,0.00,WUHU216HW,2013-06-01 19:44:00,
2013-06-01 13:49:00,65.5,43.5,30.14,SE,135,6.3,16.7,45,0.00,,,0.00,WUHU216HW,2013-06-01 19:49:00,
2013-06-01 13:55:00,65.5,42.3,30.13,ESE,113,11.4,16.7,43,0.00,,,0.00,WUHU216HW,2013-06-01 19:55:00,
2013-06-01 14:00:00,65.9,41.5,30.13,ESE,113,10.7,17.8,41,0.00,,,0.00,WUHU216HW,2013-06-01 20:00:00,
2013-06-01 14:05:00,65.9,43.8,30.13,ESE,113,9.2,13.9,45,0.00,,,0.00,WUHU216HW,2013-06-01 20:05:00,
2013-06-01 14:10:00,66.1,41.0,30.13,East,90,11.6,17.8,40,0.00,,,0.00,WUHU216HW,2013-06-01 20:10:00,
2013-06-01 14:15:00,66.2,41.9,30.13,ENE,68,8.9,17.5,41,0.00,,,0.00,WUHU216HW,2013-06-01 20:15:00,
2013-06-01 14:20:00,66.6,40.9,30.13,ESE,113,11.2,15.7,39,0.00,,,0.00,WUHU216HW,2013-06-01 20:20:00,
2013-06-01 14:25:00,66.4,40.7,30.12,East,90,9.2,14.4,39,0.00,,,0.00,WUHU216HW,2013-06-01 20:25:00,
2013-06-01 14:30:00,66.4,40.7,30.12,East,90,9.2,14.4,39,0.00,,,0.00,WUHU216HW,2013-06-01 20:30:00,
2013-06-01 14:35:00,66.2,39.1,30.12,ENE,68,10.5,15.4,37,0.00,,,0.00,WUHU216HW,2013-06-01 20:35:00,
2013-06-01 14:40:00,66.2,41.2,30.12,ENE,68,12.1,15.4,40,0.00,,,0.00,WUHU216HW,2013-06-01 20:40:00,
2013-06-01 14:45:00,66.1,40.3,30.12,East,90,9.2,14.2,39,0.00,,,0.00,WUHU216HW,2013-06-01 20:45:00,
2013-06-01 14:50:00,66.1,38.9,30.12,East,90,8.9,14.2,37,0.00,,,0.00,WUHU216HW,2013-06-01 20:50:00,
2013-06-01 14:55:00,66.2,39.8,30.12,East,90,10.3,14.4,38,0.00,,,0.00,WUHU216HW,2013-06-01 20:55:00,
2013-06-01 15:00:00,66.2,39.8,30.12,East,90,10.3,14.4,38,0.00,,,0.00,WUHU216HW,2013-06-01 21:00:00,
2013-06-01 15:05:00,66.1,38.9,30.11,ESE,113,8.3,13.6,37,0.00,,,0.00,WUHU216HW,2013-06-01 21:05:00,
2013-06-01 15:10:00,66.1,41.0,30.11,ENE,68,6.9,13.3,40,0.00,,,0.00,WUHU216HW,2013-06-01 21:10:00,
2013-06-01 15:15:00,66.2,39.8,30.11,East,90,8.3,13.3,38,0.00,,,0.00,WUHU216HW,2013-06-01 21:15:00,
2013-06-01 15:20:00,66.4,40.7,30.11,SE,135,8.7,13.3,39,0.00,,,0.00,WUHU216HW,2013-06-01 21:20:00,
2013-06-01 15:25:00,66.4,40.0,30.11,ESE,113,7.2,13.3,38,0.00,,,0.00,WUHU216HW,2013-06-01 21:25:00,
2013-06-01 15:30:00,66.4,40.0,30.10,ESE,113,6.9,13.3,38,0.00,,,0.00,WUHU216HW,2013-06-01 21:30:00,
2013-06-01 15:35:00,66.2,40.5,30.10,East,90,9.2,13.3,39,0.00,,,0.00,WUHU216HW,2013-06-01 21:35:00,
2013-06-01 15:40:00,66.2,39.8,30.10,East,90,5.6,13.1,38,0.00,,,0.00,WUHU216HW,2013-06-01 21:40:00,
2013-06-01 15:45:00,66.2,39.8,30.10,East,90,8.5,13.1,38,0.00,,,0.00,WUHU216HW,2013-06-01 21:45:00,
2013-06-01 15:50:00,66.2,39.8,30.10,East,90,8.9,12.1,38,0.00,,,0.00,WUHU216HW,2013-06-01 21:50:00,
2013-06-01 15:56:00,66.1,41.0,30.10,East,90,9.2,12.1,40,0.00,,,0.00,WUHU216HW,2013-06-01 21:56:00,
2013-06-01 16:01:00,65.9,40.9,30.09,East,90,6.9,11.0,40,0.00,,,0.00,WUHU216HW,2013-06-01 22:01:00,
2013-06-01 16:06:00,65.9,40.9,30.09,East,90,5.4,11.0,40,0.00,,,0.00,WUHU216HW,2013-06-01 22:06:00,
2013-06-01 16:07:00,65.9,41.5,30.09,ESE,113,9.2,11.0,41,0.00,,,0.00,WUHU216HW,2013-06-01 22:07:00,
2013-06-01 16:11:00,65.9,40.1,30.10,ESE,113,6.7,11.0,39,0.00,,,0.00,WUHU216HW,2013-06-01 22:11:00,
2013-06-01 16:16:00,65.9,41.5,30.09,ESE,113,9.2,11.0,41,0.00,,,0.00,WUHU216HW,2013-06-01 22:16:00,
2013-06-01 16:18:00,65.3,41.0,30.09,East,90,7.4,11.5,41,0.00,,,0.00,WUHU216HW,2013-06-01 22:18:00,
2013-06-01 16:19:00,65.3,41.0,30.09,East,90,7.6,11.5,41,0.00,,,0.00,WUHU216HW,2013-06-01 22:19:00,
2013-06-01 16:21:00,65.5,40.6,30.09,ESE,113,7.2,10.8,40,0.00,,,0.00,WUHU216HW,2013-06-01 22:21:00,
2013-06-01 16:22:00,65.2,40.2,30.09,East,90,6.3,11.5,40,0.00,,,0.00,WUHU216HW,2013-06-01 22:22:00,
2013-06-01 16:24:00,65.2,40.9,30.09,East,90,9.2,11.5,41,0.00,,,0.00,WUHU216HW,2013-06-01 22:24:00,
2013-06-01 16:25:00,65.2,40.2,30.09,ESE,113,8.1,11.5,40,0.00,,,0.00,WUHU216HW,2013-06-01 22:25:00,
2013-06-01 16:26:00,65.2,40.2,30.09,ESE,113,8.1,11.5,40,0.00,,,0.00,WUHU216HW,2013-06-01 22:26:00,
2013-06-01 16:31:00,65.2,40.2,30.08,ESE,113,7.8,10.8,40,0.00,,,0.00,WUHU216HW,2013-06-01 22:31:00,
2013-06-01 16:36:00,65.2,40.2,30.09,East,90,6.5,11.0,40,0.00,,,0.00,WUHU216HW,2013-06-01 22:36:00,
2013-06-01 16:41:00,65.2,40.2,30.09,East,90,6.9,11.0,40,0.00,,,0.00,WUHU216HW,2013-06-01 22:41:00,
2013-06-01 16:46:00,64.8,39.3,30.08,ESE,113,9.6,12.1,39,0.00,,,0.00,WUHU216HW,2013-06-01 22:46:00,
2013-06-01 16:51:00,64.8,40.0,30.08,East,90,6.3,11.2,40,0.00,,,0.00,WUHU216HW,2013-06-01 22:51:00,
2013-06-01 16:56:00,64.6,40.3,30.08,ENE,68,6.9,11.2,41,0.00,,,0.00,WUHU216HW,2013-06-01 22:56:00,
2013-06-01 17:01:00,64.4,41.3,30.08,East,90,5.8,8.1,43,0.00,,,0.00,WUHU216HW,2013-06-01 23:01:00,
2013-06-01 17:06:00,64.4,41.3,30.08,East,90,5.4,7.6,43,0.00,,,0.00,WUHU216HW,2013-06-01 23:06:00,
2013-06-01 17:11:00,64.4,41.3,30.08,East,90,4.9,7.6,43,0.00,,,0.00,WUHU216HW,2013-06-01 23:11:00,
2013-06-01 17:16:00,64.4,42.0,30.07,East,90,5.4,7.4,44,0.00,,,0.00,WUHU216HW,2013-06-01 23:16:00,
2013-06-01 17:21:00,64.4,41.3,30.07,ENE,68,5.8,8.1,43,0.00,,,0.00,WUHU216HW,2013-06-01 23:21:00,
2013-06-01 17:24:00,64.4,42.0,30.07,SE,135,5.4,8.1,44,0.00,,,0.00,WUHU216HW,2013-06-01 23:24:00,
2013-06-01 17:25:00,64.4,42.0,30.07,ENE,68,2.5,8.1,44,0.00,,,0.00,WUHU216HW,2013-06-01 23:25:00,
2013-06-01 17:26:00,64.4,42.0,30.07,East,90,4.7,8.1,44,0.00,,,0.00,WUHU216HW,2013-06-01 23:26:00,
2013-06-01 17:27:00,64.4,42.0,30.07,ESE,113,4.5,8.1,44,0.00,,,0.00,WUHU216HW,2013-06-01 23:27:00,
2013-06-01 17:29:00,64.4,42.0,30.07,East,90,4.5,6.8,44,0.00,,,0.00,WUHU216HW,2013-06-01 23:29:00,
2013-06-01 17:30:00,64.4,42.5,30.07,ENE,68,2.5,6.8,45,0.00,,,0.00,WUHU216HW,2013-06-01 23:30:00,
2013-06-01 17:32:00,64.4,42.0,30.07,SE,135,5.4,8.1,44,0.00,,,0.00,WUHU216HW,2013-06-01 23:32:00,
2013-06-01 17:33:00,64.4,42.5,30.07,East,90,3.8,6.3,45,0.00,,,0.00,WUHU216HW,2013-06-01 23:33:00,
2013-06-01 17:35:00,64.4,42.0,30.07,ESE,113,6.3,7.4,44,0.00,,,0.00,WUHU216HW,2013-06-01 23:35:00,
2013-06-01 17:37:00,64.4,42.0,30.07,East,90,6.0,8.9,44,0.00,,,0.00,WUHU216HW,2013-06-01 23:37:00,
2013-06-01 17:40:00,64.4,40.1,30.07,ESE,113,5.4,8.9,41,0.00,,,0.00,WUHU216HW,2013-06-01 23:40:00,
2013-06-01 17:41:00,64.4,40.1,30.07,ESE,113,5.8,8.9,41,0.00,,,0.00,WUHU216HW,2013-06-01 23:41:00,
2013-06-01 17:42:00,64.4,40.1,30.07,ESE,113,5.8,8.9,41,0.00,,,0.00,WUHU216HW,2013-06-01 23:42:00,
2013-06-01 17:43:00,64.4,40.1,30.07,ESE,113,4.0,8.9,41,0.00,,,0.00,WUHU216HW,2013-06-01 23:43:00,
2013-06-01 17:47:00,64.4,40.8,30.07,ESE,113,3.4,8.4,42,0.00,,,0.00,WUHU216HW,2013-06-01 23:47:00,
2013-06-01 17:49:00,64.4,41.3,30.07,ESE,113,4.9,8.4,43,0.00,,,0.00,WUHU216HW,2013-06-01 23:49:00,
2013-06-01 17:51:00,64.6,41.0,30.07,ESE,113,4.0,8.4,42,0.00,,,0.00,WUHU216HW,2013-06-01 23:51:00,
2013-06-01 17:52:00,64.6,41.0,30.07,ESE,113,4.0,8.4,42,0.00,,,0.00,WUHU216HW,2013-06-01 23:52:00,
2013-06-01 17:53:00,64.6,41.0,30.07,ESE,113,4.0,7.8,42,0.00,,,0.00,WUHU216HW,2013-06-01 23:53:00,
2013-06-01 17:55:00,64.6,40.3,30.07,ESE,113,4.3,7.4,41,0.00,,,0.00,WUHU216HW,2013-06-01 23:55:00,
2013-06-01 17:56:00,64.8,42.2,30.07,ESE,113,5.1,7.4,44,0.00,,,0.00,WUHU216HW,2013-06-01 23:56:00,
2013-06-01 17:58:00,64.8,41.7,30.07,SE,135,3.6,7.4,43,0.00,,,0.00,WUHU216HW,2013-06-01 23:58:00,
2013-06-01 17:59:00,64.8,40.5,30.07,ESE,113,5.8,7.4,41,0.00,,,0.00,WUHU216HW,2013-06-01 23:59:00,
2013-06-01 18:01:00,64.8,40.0,30.07,ESE,113,5.6,7.0,40,0.00,,,0.00,WUHU216HW,2013-06-02 00:01:00,
2013-06-01 18:02:00,65.0,40.7,30.07,SE,135,5.6,7.0,41,0.00,,,0.00,WUHU216HW,2013-06-02 00:02:00,
2013-06-01 18:04:00,65.0,40.7,30.07,ESE,113,5.6,7.8,41,0.00,,,0.00,WUHU216HW,2013-06-02 00:04:00,
2013-06-01 18:05:00,65.0,40.1,30.07,ESE,113,4.9,8.1,40,0.00,,,0.00,WUHU216HW,2013-06-02 00:05:00,
2013-06-01 18:07:00,65.0,40.7,30.07,East,90,6.7,8.1,41,0.00,,,0.00,WUHU216HW,2013-06-02 00:07:00,
2013-06-01 18:08:00,65.2,39.5,30.07,ESE,113,5.1,8.1,39,0.00,,,0.00,WUHU216HW,2013-06-02 00:08:00,
2013-06-01 18:10:00,65.2,39.5,30.07,ESE,113,5.1,8.1,39,0.00,,,0.00,WUHU216HW,2013-06-02 00:10:00,
2013-06-01 18:11:00,65.2,39.5,30.07,ESE,113,5.1,8.1,39,0.00,,,0.00,WUHU216HW,2013-06-02 00:11:00,
2013-06-01 18:13:00,65.3,39.7,30.07,ESE,113,5.6,8.4,39,0.00,,,0.00,WUHU216HW,2013-06-02 00:13:00,
2013-06-01 18:14:00,65.3,39.7,30.06,East,90,5.4,8.4,39,0.00,,,0.00,WUHU216HW,2013-06-02 00:14:00,
2013-06-01 18:16:00,65.3,40.4,30.06,ESE,113,6.7,8.4,40,0.00,,,0.00,WUHU216HW,2013-06-02 00:16:00,
2013-06-01 18:18:00,65.3,41.0,30.06,ESE,113,7.2,8.4,41,0.00,,,0.00,WUHU216HW,2013-06-02 00:18:00,
2013-06-01 18:19:00,65.5,41.1,30.06,ESE,113,5.6,8.4,41,0.00,,,0.00,WUHU216HW,2013-06-02 00:19:00,
2013-06-01 18:21:00,65.5,40.6,30.06,SE,135,4.9,8.4,40,0.00,,,0.00,WUHU216HW,2013-06-02 00:21:00,
2013-06-01 18:22:00,65.5,41.1,30.06,ESE,113,3.4,8.4,41,0.00,,,0.00,WUHU216HW,2013-06-02 00:22:00,
2013-06-01 18:24:00,65.5,41.1,30.06,ENE,68,3.8,8.4,41,0.00,,,0.00,WUHU216HW,2013-06-02 00:24:00,
2013-06-01 18:25:00,65.5,40.6,30.06,East,90,4.5,8.4,40,0.00,,,0.00,WUHU216HW,2013-06-02 00:25:00,
2013-06-01 18:27:00,65.5,41.1,30.06,East,90,6.0,8.4,41,0.00,,,0.00,WUHU216HW,2013-06-02 00:27:00,
2013-06-01 18:28:00,65.5,41.1,30.06,East,90,3.6,7.8,41,0.00,,,0.00,WUHU216HW,2013-06-02 00:28:00,
2013-06-01 18:30:00,65.3,40.4,30.06,East,90,4.0,7.8,40,0.00,,,0.00,WUHU216HW,2013-06-02 00:30:00,
2013-06-01 18:31:00,65.3,40.4,30.06,East,90,4.5,7.4,40,0.00,,,0.00,WUHU216HW,2013-06-02 00:31:00,
2013-06-01 18:33:00,65.2,40.2,30.06,East,90,4.3,7.4,40,0.00,,,0.00,WUHU216HW,2013-06-02 00:33:00,
2013-06-01 18:34:00,65.2,40.2,30.06,East,90,2.5,7.4,40,0.00,,,0.00,WUHU216HW,2013-06-02 00:34:00,
2013-06-01 18:36:00,65.2,40.2,30.06,East,90,2.9,7.4,40,0.00,,,0.00,WUHU216HW,2013-06-02 00:36:00,
2013-06-01 18:38:00,65.2,40.2,30.06,East,90,4.0,7.4,40,0.00,,,0.00,WUHU216HW,2013-06-02 00:38:00,
2013-06-01 18:39:00,65.0,40.7,30.05,East,90,4.0,7.4,41,0.00,,,0.00,WUHU216HW,2013-06-02 00:39:00,
2013-06-01 18:41:00,65.0,39.3,30.06,ESE,113,5.1,7.4,39,0.00,,,0.00,WUHU216HW,2013-06-02 00:41:00,
2013-06-01 18:42:00,65.0,40.1,30.05,East,90,4.0,6.0,40,0.00,,,0.00,WUHU216HW,2013-06-02 00:42:00,
2013-06-01 18:44:00,65.0,40.1,30.05,ESE,113,3.4,6.0,40,0.00,,,0.00,WUHU216HW,2013-06-02 00:44:00,
2013-06-01 18:45:00,65.0,40.1,30.05,ESE,113,3.4,6.0,40,0.00,,,0.00,WUHU216HW,2013-06-02 00:45:00,
2013-06-01 18:47:00,64.8,40.5,30.05,SE,135,4.5,6.0,41,0.00,,,0.00,WUHU216HW,2013-06-02 00:47:00,
2013-06-01 18:48:00,64.8,41.0,30.05,SE,135,4.7,6.8,42,0.00,,,0.00,WUHU216HW,2013-06-02 00:48:00,
2013-06-01 18:50:00,64.8,41.0,30.05,ESE,113,4.9,6.8,42,0.00,,,0.00,WUHU216HW,2013-06-02 00:50:00,
2013-06-01 18:51:00,64.8,41.0,30.05,ESE,113,6.3,7.4,42,0.00,,,0.00,WUHU216HW,2013-06-02 00:51:00,
2013-06-01 18:53:00,64.8,40.0,30.05,ESE,113,7.2,8.4,40,0.00,,,0.00,WUHU216HW,2013-06-02 00:53:00,
2013-06-01 18:54:00,64.6,40.3,30.05,ESE,113,4.7,8.4,41,0.00,,,0.00,WUHU216HW,2013-06-02 00:54:00,
2013-06-01 18:56:00,64.6,40.3,30.05,ESE,113,3.8,8.4,41,0.00,,,0.00,WUHU216HW,2013-06-02 00:56:00,
2013-06-01 18:58:00,64.6,40.3,30.05,East,90,2.5,8.4,41,0.00,,,0.00,WUHU216HW,2013-06-02 00:58:00,
2013-06-01 18:59:00,64.4,41.3,30.05,ESE,113,2.2,8.4,43,0.00,,,0.00,WUHU216HW,2013-06-02 00:59:00,
2013-06-01 19:01:00,64.4,42.0,30.05,ESE,113,3.1,8.4,44,0.00,,,0.00,WUHU216HW,2013-06-02 01:01:00,
2013-06-01 19:02:00,64.4,42.0,30.05,SE,135,2.7,8.4,44,0.00,,,0.00,WUHU216HW,2013-06-02 01:02:00,
2013-06-01 19:04:00,64.4,42.0,30.05,ESE,113,2.9,5.5,44,0.00,,,0.00,WUHU216HW,2013-06-02 01:04:00,
2013-06-01 19:05:00,64.4,42.0,30.05,ESE,113,1.6,5.5,44,0.00,,,0.00,WUHU216HW,2013-06-02 01:05:00,
2013-06-01 19:07:00,64.4,42.0,30.05,ESE,113,2.0,4.4,44,0.00,,,0.00,WUHU216HW,2013-06-02 01:07:00,
2013-06-01 19:08:00,64.4,42.0,30.05,East,90,1.6,4.4,44,0.00,,,0.00,WUHU216HW,2013-06-02 01:08:00,
2013-06-01 19:10:00,64.4,42.0,30.05,SE,135,2.5,4.4,44,0.00,,,0.00,WUHU216HW,2013-06-02 01:10:00,
2013-06-01 19:11:00,64.4,42.0,30.05,SE,135,2.5,4.4,44,0.00,,,0.00,WUHU216HW,2013-06-02 01:11:00,
2013-06-01 19:13:00,64.3,42.3,30.05,East,90,3.1,4.0,45,0.00,,,0.00,WUHU216HW,2013-06-02 01:13:00,
2013-06-01 19:14:00,64.3,42.3,30.05,East,90,3.1,4.0,45,0.00,,,0.00,WUHU216HW,2013-06-02 01:14:00,
2013-06-01 19:15:00,64.3,42.3,30.05,ESE,113,2.7,4.0,45,0.00,,,0.00,WUHU216HW,2013-06-02 01:15:00,
2013-06-01 19:16:00,64.3,42.3,30.05,ESE,113,2.7,4.0,45,0.00,,,0.00,WUHU216HW,2013-06-02 01:16:00,
2013-06-01 19:17:00,64.1,42.1,30.05,ESE,113,3.4,4.0,45,0.00,,,0.00,WUHU216HW,2013-06-02 01:17:00,
2013-06-01 19:18:00,64.1,42.1,30.05,ESE,113,3.4,5.5,45,0.00,,,0.00,WUHU216HW,2013-06-02 01:18:00,
2013-06-01 19:20:00,64.1,42.1,30.05,East,90,3.8,5.5,45,0.00,,,0.00,WUHU216HW,2013-06-02 01:20:00,
2013-06-01 19:21:00,64.1,42.1,30.05,East,90,2.9,5.5,45,0.00,,,0.00,WUHU216HW,2013-06-02 01:21:00,
2013-06-01 19:22:00,64.1,42.1,30.05,East,90,2.9,5.5,45,0.00,,,0.00,WUHU216HW,2013-06-02 01:22:00,
2013-06-01 19:23:00,63.9,42.0,30.05,East,90,2.5,5.5,45,0.00,,,0.00,WUHU216HW,2013-06-02 01:23:00,
2013-06-01 19:24:00,64.1,42.1,30.05,East,90,2.2,5.5,45,0.00,,,0.00,WUHU216HW,2013-06-02 01:24:00,
2013-06-01 19:25:00,63.9,42.0,30.05,ENE,68,2.0,5.5,45,0.00,,,0.00,WUHU216HW,2013-06-02 01:25:00,
2013-06-01 19:27:00,63.9,42.0,30.05,ENE,68,1.8,5.5,45,0.00,,,0.00,WUHU216HW,2013-06-02 01:27:00,
2013-06-01 19:28:00,63.9,42.6,30.05,ENE,68,1.3,4.7,46,0.00,,,0.00,WUHU216HW,2013-06-02 01:28:00,
2013-06-01 19:30:00,63.9,42.6,30.05,ENE,68,1.1,4.7,46,0.00,,,0.00,WUHU216HW,2013-06-02 01:30:00,
2013-06-01 19:31:00,63.9,42.6,30.05,ENE,68,1.3,3.4,46,0.00,,,0.00,WUHU216HW,2013-06-02 01:31:00,
2013-06-01 19:32:00,63.9,42.6,30.05,ENE,68,1.3,3.4,46,0.00,,,0.00,WUHU216HW,2013-06-02 01:32:00,
2013-06-01 19:34:00,63.9,42.6,30.05,ENE,68,1.1,3.2,46,0.00,,,0.00,WUHU216HW,2013-06-02 01:34:00,
2013-06-01 19:35:00,63.9,42.6,30.05,NE,45,0.7,3.2,46,0.00,,,0.00,WUHU216HW,2013-06-02 01:35:00,
2013-06-01 19:37:00,63.9,42.6,30.05,NE,45,1.1,2.9,46,0.00,,,0.00,WUHU216HW,2013-06-02 01:37:00,
2013-06-01 19:38:00,64.1,42.8,30.05,ENE,68,1.1,2.1,46,0.00,,,0.00,WUHU216HW,2013-06-02 01:38:00,
2013-06-01 19:40:00,63.9,42.6,30.05,ENE,68,2.5,2.9,46,0.00,,,0.00,WUHU216HW,2013-06-02 01:40:00,
2013-06-01 19:41:00,63.9,42.6,30.05,ENE,68,1.3,2.9,46,0.00,,,0.00,WUHU216HW,2013-06-02 01:41:00,
2013-06-01 19:42:00,63.9,42.6,30.05,ENE,68,1.3,2.9,46,0.00,,,0.00,WUHU216HW,2013-06-02 01:42:00,
2013-06-01 19:43:00,64.1,42.8,30.05,ENE,68,2.2,2.9,46,0.00,,,0.00,WUHU216HW,2013-06-02 01:43:00,
2013-06-01 19:46:00,64.1,43.3,30.05,NE,45,0.9,2.9,47,0.00,,,0.00,WUHU216HW,2013-06-02 01:46:00,
2013-06-01 19:47:00,64.1,42.8,30.05,ENE,68,0.7,2.9,46,0.00,,,0.00,WUHU216HW,2013-06-02 01:47:00,
2013-06-01 19:49:00,64.1,42.8,30.05,ENE,68,0.4,2.9,46,0.00,,,0.00,WUHU216HW,2013-06-02 01:49:00,
2013-06-01 19:51:00,64.1,43.3,30.05,ENE,68,0.9,2.6,47,0.00,,,0.00,WUHU216HW,2013-06-02 01:51:00,
2013-06-01 19:52:00,64.1,43.3,30.05,ENE,68,0.9,2.6,47,0.00,,,0.00,WUHU216HW,2013-06-02 01:52:00,
2013-06-01 19:55:00,63.9,43.1,30.05,NE,45,0.0,1.3,47,0.00,,,0.00,WUHU216HW,2013-06-02 01:55:00,
2013-06-01 19:57:00,63.9,43.1,30.04,East,90,0.7,1.3,47,0.00,,,0.00,WUHU216HW,2013-06-02 01:57:00,
2013-06-01 19:58:00,63.9,43.1,30.04,ENE,68,0.4,1.3,47,0.00,,,0.00,WUHU216HW,2013-06-02 01:58:00,
2013-06-01 20:00:00,63.7,43.0,30.04,ENE,68,0.4,1.5,47,0.00,,,0.00,WUHU216HW,2013-06-02 02:00:00,
2013-06-01 20:02:00,63.7,42.4,30.04,ENE,68,1.1,1.5,46,0.00,,,0.00,WUHU216HW,2013-06-02 02:02:00,
2013-06-01 20:04:00,63.7,42.4,30.04,ENE,68,0.0,1.5,46,0.00,,,0.00,WUHU216HW,2013-06-02 02:04:00,
2013-06-01 20:05:00,63.7,42.4,30.04,ENE,68,0.2,1.5,46,0.00,,,0.00,WUHU216HW,2013-06-02 02:05:00,
2013-06-01 20:08:00,63.7,43.0,30.04,ENE,68,0.7,1.5,47,0.00,,,0.00,WUHU216HW,2013-06-02 02:08:00,
2013-06-01 20:09:00,63.5,42.2,30.04,ENE,68,0.2,1.3,46,0.00,,,0.00,WUHU216HW,2013-06-02 02:09:00,
2013-06-01 20:11:00,63.5,42.2,30.04,ENE,68,0.2,1.3,46,0.00,,,0.00,WUHU216HW,2013-06-02 02:11:00,
2013-06-01 20:13:00,63.5,42.2,30.04,ENE,68,0.2,1.3,46,0.00,,,0.00,WUHU216HW,2013-06-02 02:13:00,
2013-06-01 20:14:00,63.4,42.1,30.04,ENE,68,0.7,1.3,46,0.00,,,0.00,WUHU216HW,2013-06-02 02:14:00,
2013-06-01 20:17:00,63.4,42.1,30.04,ENE,68,0.4,1.3,46,0.00,,,0.00,WUHU216HW,2013-06-02 02:17:00,
2013-06-01 20:18:00,63.4,42.1,30.04,ENE,68,0.4,1.3,46,0.00,,,0.00,WUHU216HW,2013-06-02 02:18:00,
2013-06-01 20:19:00,63.2,42.0,30.04,ENE,68,0.4,1.1,46,0.00,,,0.00,WUHU216HW,2013-06-02 02:19:00,
2013-06-01 20:21:00,63.0,41.8,30.04,East,90,2.2,2.6,46,0.00,,,0.00,WUHU216HW,2013-06-02 02:21:00,
2013-06-01 20:22:00,63.0,41.8,30.04,East,90,1.3,2.6,46,0.00,,,0.00,WUHU216HW,2013-06-02 02:22:00,
2013-06-01 20:23:00,63.0,41.8,30.04,East,90,1.3,2.6,46,0.00,,,0.00,WUHU216HW,2013-06-02 02:23:00,
2013-06-01 20:24:00,63.0,41.8,30.04,ENE,68,1.1,2.6,46,0.00,,,0.00,WUHU216HW,2013-06-02 02:24:00,
2013-06-01 20:26:00,62.8,41.6,30.04,East,90,0.7,2.6,46,0.00,,,0.00,WUHU216HW,2013-06-02 02:26:00,
2013-06-01 20:28:00,62.8,42.2,30.04,East,90,0.4,2.6,47,0.00,,,0.00,WUHU216HW,2013-06-02 02:28:00,
2013-06-01 20:29:00,62.8,42.2,30.04,East,90,0.2,2.6,47,0.00,,,0.00,WUHU216HW,2013-06-02 02:29:00,
2013-06-01 20:30:00,62.6,42.0,30.04,East,90,0.0,2.6,47,0.00,,,0.00,WUHU216HW,2013-06-02 02:30:00,
2013-06-01 20:33:00,62.6,42.6,30.04,East,90,0.0,1.3,48,0.00,,,0.00,WUHU216HW,2013-06-02 02:33:00,
2013-06-01 20:34:00,62.5,42.4,30.04,ENE,68,0.0,1.3,48,0.00,,,0.00,WUHU216HW,2013-06-02 02:34:00,
2013-06-01 20:35:00,62.5,42.4,30.04,ENE,68,0.0,1.3,48,0.00,,,0.00,WUHU216HW,2013-06-02 02:35:00,
2013-06-01 20:37:00,62.3,42.3,30.04,ENE,68,0.0,1.3,48,0.00,,,0.00,WUHU216HW,2013-06-02 02:37:00,
2013-06-01 20:38:00,62.3,42.3,30.04,ENE,68,0.0,0.8,48,0.00,,,0.00,WUHU216HW,2013-06-02 02:38:00,
2013-06-01 20:39:00,62.1,42.1,30.04,NE,45,0.0,0.0,48,0.00,,,0.00,WUHU216HW,2013-06-02 02:39:00,
2013-06-01 20:41:00,61.9,41.9,30.04,NNE,23,0.2,0.5,48,0.00,,,0.00,WUHU216HW,2013-06-02 02:41:00,
2013-06-01 20:42:00,61.9,41.9,30.04,NNE,23,0.0,0.5,48,0.00,,,0.00,WUHU216HW,2013-06-02 02:42:00,
2013-06-01 20:43:00,61.9,41.9,30.04,NNE,23,0.0,0.5,48,0.00,,,0.00,WUHU216HW,2013-06-02 02:43:00,
2013-06-01 20:44:00,61.9,41.9,30.04,NNE,23,0.4,1.1,48,0.00,,,0.00,WUHU216HW,2013-06-02 02:44:00,
2013-06-01 20:47:00,61.6,41.6,30.04,North,0,1.1,1.3,48,0.00,,,0.00,WUHU216HW,2013-06-02 02:47:00,
2013-06-01 20:48:00,61.6,41.6,30.04,North,0,0.4,1.3,48,0.00,,,0.00,WUHU216HW,2013-06-02 02:48:00,
2013-06-01 20:49:00,61.6,41.6,30.04,North,0,0.4,1.3,48,0.00,,,0.00,WUHU216HW,2013-06-02 02:49:00,
2013-06-01 20:50:00,61.6,41.6,30.04,North,0,0.0,1.3,48,0.00,,,0.00,WUHU216HW,2013-06-02 02:50:00,
2013-06-01 20:51:00,61.4,42.0,30.04,North,0,0.0,1.3,49,0.00,,,0.00,WUHU216HW,2013-06-02 02:51:00,
2013-06-01 20:54:00,61.2,41.9,30.04,NNW,338,1.8,2.1,49,0.00,,,0.00,WUHU216HW,2013-06-02 02:54:00,
2013-06-01 20:56:00,60.8,42.1,30.04,NNW,338,0.7,2.1,50,0.00,,,0.00,WUHU216HW,2013-06-02 02:56:00,
2013-06-01 20:58:00,60.7,42.5,30.04,NNW,338,0.7,2.1,51,0.00,,,0.00,WUHU216HW,2013-06-02 02:58:00,
2013-06-01 20:59:00,60.7,42.5,30.04,NNW,338,0.7,2.1,51,0.00,,,0.00,WUHU216HW,2013-06-02 02:59:00,
2013-06-01 21:01:00,60.3,42.6,30.04,NNW,338,0.9,2.1,52,0.00,,,0.00,WUHU216HW,2013-06-02 03:01:00,
2013-06-01 21:03:00,60.1,42.4,30.04,NNW,338,0.9,2.1,52,0.00,,,0.00,WUHU216HW,2013-06-02 03:03:00,
2013-06-01 21:04:00,60.1,42.4,30.04,NNW,338,0.9,2.1,52,0.00,,,0.00,WUHU216HW,2013-06-02 03:04:00,
2013-06-01 21:07:00,59.8,42.6,30.04,NNW,338,0.2,1.3,53,0.00,,,0.00,WUHU216HW,2013-06-02 03:07:00,
2013-06-01 21:08:00,59.6,42.4,30.04,NNW,338,0.0,1.1,53,0.00,,,0.00,WUHU216HW,2013-06-02 03:08:00,
2013-06-01 21:09:00,59.6,42.4,30.04,NNW,338,0.0,1.1,53,0.00,,,0.00,WUHU216HW,2013-06-02 03:09:00,
2013-06-01 21:10:00,59.6,42.8,30.04,WNW,293,0.4,1.1,54,0.00,,,0.00,WUHU216HW,2013-06-02 03:10:00,
2013-06-01 21:11:00,59.4,42.8,30.04,West,270,0.7,1.1,54,0.00,,,0.00,WUHU216HW,2013-06-02 03:11:00,
2013-06-01 21:12:00,59.4,42.8,30.04,West,270,0.4,1.1,54,0.00,,,0.00,WUHU216HW,2013-06-02 03:12:00,
2013-06-01 21:14:00,59.4,43.2,30.04,West,270,0.7,1.1,55,0.00,,,0.00,WUHU216HW,2013-06-02 03:14:00,
2013-06-01 21:19:00,59.0,42.8,30.04,West,270,0.0,0.8,55,0.00,,,0.00,WUHU216HW,2013-06-02 03:19:00,
2013-06-01 21:20:00,59.0,42.8,30.04,West,270,0.0,0.8,55,0.00,,,0.00,WUHU216HW,2013-06-02 03:20:00,
2013-06-01 21:21:00,59.0,42.8,30.04,West,270,0.0,0.8,55,0.00,,,0.00,WUHU216HW,2013-06-02 03:21:00,
2013-06-01 21:23:00,59.0,42.8,30.04,West,270,0.0,0.8,55,0.00,,,0.00,WUHU216HW,2013-06-02 03:23:00,
2013-06-01 21:25:00,59.0,43.3,30.04,West,270,0.0,0.8,56,0.00,,,0.00,WUHU216HW,2013-06-02 03:25:00,
2013-06-01 21:26:00,58.9,43.1,30.04,West,270,0.0,0.8,56,0.00,,,0.00,WUHU216HW,2013-06-02 03:26:00,
2013-06-01 21:30:00,58.9,43.1,30.04,West,270,0.0,0.0,56,0.00,,,0.00,WUHU216HW,2013-06-02 03:30:00,
2013-06-01 21:31:00,58.9,43.1,30.03,West,270,0.0,0.0,56,0.00,,,0.00,WUHU216HW,2013-06-02 03:31:00,
2013-06-01 21:34:00,58.7,43.5,30.04,West,270,0.0,0.0,57,0.00,,,0.00,WUHU216HW,2013-06-02 03:34:00,
2013-06-01 21:35:00,58.7,43.5,30.04,West,270,0.0,0.0,57,0.00,,,0.00,WUHU216HW,2013-06-02 03:35:00,
2013-06-01 21:37:00,58.7,43.5,30.04,West,270,0.0,0.0,57,0.00,,,0.00,WUHU216HW,2013-06-02 03:37:00,
2013-06-01 21:38:00,58.5,43.3,30.04,West,270,0.0,0.0,57,0.00,,,0.00,WUHU216HW,2013-06-02 03:38:00,
2013-06-01 21:40:00,58.5,43.3,30.04,WSW,248,0.0,0.0,57,0.00,,,0.00,WUHU216HW,2013-06-02 03:40:00,
2013-06-01 21:41:00,58.3,43.6,30.03,WSW,248,0.0,0.0,58,0.00,,,0.00,WUHU216HW,2013-06-02 03:41:00,
2013-06-01 21:43:00,58.3,43.6,30.04,WSW,248,0.0,0.0,58,0.00,,,0.00,WUHU216HW,2013-06-02 03:43:00,
2013-06-01 21:45:00,58.1,43.5,30.03,WSW,248,0.0,0.0,58,0.00,,,0.00,WUHU216HW,2013-06-02 03:45:00,
2013-06-01 21:47:00,58.0,43.3,30.04,SW,225,0.9,1.1,58,0.00,,,0.00,WUHU216HW,2013-06-02 03:47:00,
2013-06-01 21:50:00,58.0,43.3,30.04,SW,225,0.9,1.9,58,0.00,,,0.00,WUHU216HW,2013-06-02 03:50:00,
2013-06-01 21:51:00,57.8,43.1,30.04,SW,225,0.0,1.9,58,0.00,,,0.00,WUHU216HW,2013-06-02 03:51:00,
2013-06-01 21:53:00,57.8,43.1,30.04,SW,225,0.0,1.9,58,0.00,,,0.00,WUHU216HW,2013-06-02 03:53:00,
2013-06-01 21:55:00,57.8,43.6,30.04,SW,225,0.2,1.9,59,0.00,,,0.00,WUHU216HW,2013-06-02 03:55:00,
2013-06-01 21:57:00,57.6,43.4,30.04,SW,225,1.3,2.1,59,0.00,,,0.00,WUHU216HW,2013-06-02 03:57:00,
2013-06-01 22:01:00,57.4,43.8,30.04,SSW,203,1.1,2.1,60,0.00,,,0.00,WUHU216HW,2013-06-02 04:01:00,
2013-06-01 22:02:00,57.4,43.8,30.04,SSW,203,1.1,2.1,60,0.00,,,0.00,WUHU216HW,2013-06-02 04:02:00,
2013-06-01 22:04:00,57.2,43.6,30.04,SW,225,0.7,2.1,60,0.00,,,0.00,WUHU216HW,2013-06-02 04:04:00,
2013-06-01 22:07:00,57.2,43.6,30.04,SW,225,0.4,2.1,60,0.00,,,0.00,WUHU216HW,2013-06-02 04:07:00,
2013-06-01 22:08:00,57.1,43.4,30.04,SW,225,0.0,2.1,60,0.00,,,0.00,WUHU216HW,2013-06-02 04:08:00,
2013-06-01 22:11:00,57.1,43.4,30.04,SW,225,0.0,1.3,60,0.00,,,0.00,WUHU216HW,2013-06-02 04:11:00,
2013-06-01 22:12:00,57.1,43.4,30.04,SW,225,0.0,1.3,60,0.00,,,0.00,WUHU216HW,2013-06-02 04:12:00,
2013-06-01 22:14:00,56.9,43.2,30.04,WSW,248,2.0,2.3,60,0.00,,,0.00,WUHU216HW,2013-06-02 04:14:00,
2013-06-01 22:15:00,56.9,43.2,30.04,WSW,248,1.8,2.6,60,0.00,,,0.00,WUHU216HW,2013-06-02 04:15:00,
2013-06-01 22:17:00,56.9,43.2,30.04,WSW,248,1.8,2.6,60,0.00,,,0.00,WUHU216HW,2013-06-02 04:17:00,
2013-06-01 22:18:00,56.9,43.2,30.04,WSW,248,1.8,2.6,60,0.00,,,0.00,WUHU216HW,2013-06-02 04:18:00,
2013-06-01 22:22:00,56.5,42.8,30.04,WSW,248,0.7,2.6,60,0.00,,,0.00,WUHU216HW,2013-06-02 04:22:00,
2013-06-01 22:23:00,56.5,43.2,30.04,WSW,248,0.4,2.6,61,0.00,,,0.00,WUHU216HW,2013-06-02 04:23:00,
2013-06-01 22:27:00,56.5,43.2,30.04,WSW,248,1.8,2.1,61,0.00,,,0.00,WUHU216HW,2013-06-02 04:27:00,
2013-06-01 22:28:00,56.5,43.2,30.04,WSW,248,1.8,2.1,61,0.00,,,0.00,WUHU216HW,2013-06-02 04:28:00,
2013-06-01 22:30:00,56.3,43.0,30.04,WSW,248,0.9,2.3,61,0.00,,,0.00,WUHU216HW,2013-06-02 04:30:00,
2013-06-01 22:32:00,56.2,42.9,30.04,WSW,248,0.7,2.3,61,0.00,,,0.00,WUHU216HW,2013-06-02 04:32:00,
2013-06-01 22:33:00,56.2,42.9,30.04,WSW,248,0.0,2.3,61,0.00,,,0.00,WUHU216HW,2013-06-02 04:33:00,
2013-06-01 22:35:00,56.2,42.9,30.04,West,270,0.0,2.3,61,0.00,,,0.00,WUHU216HW,2013-06-02 04:35:00,
2013-06-01 22:36:00,56.2,42.9,30.04,WNW,293,0.0,2.3,61,0.00,,,0.00,WUHU216HW,2013-06-02 04:36:00,
2013-06-01 22:37:00,56.2,42.9,30.04,WNW,293,0.0,2.3,61,0.00,,,0.00,WUHU216HW,2013-06-02 04:37:00,
2013-06-01 22:38:00,56.2,42.9,30.04,North,0,1.1,2.3,61,0.00,,,0.00,WUHU216HW,2013-06-02 04:38:00,
2013-06-01 22:41:00,56.0,42.8,30.04,North,0,0.4,2.1,61,0.00,,,0.00,WUHU216HW,2013-06-02 04:41:00,
2013-06-01 22:42:00,56.0,42.8,30.04,North,0,0.4,2.1,61,0.00,,,0.00,WUHU216HW,2013-06-02 04:42:00,
2013-06-01 22:46:00,55.8,42.6,30.04,NNE,23,0.0,2.1,61,0.00,,,0.00,WUHU216HW,2013-06-02 04:46:00,
2013-06-01 22:47:00,55.8,42.6,30.03,NNE,23,0.4,2.1,61,0.00,,,0.00,WUHU216HW,2013-06-02 04:47:00,
2013-06-01 22:48:00,55.8,42.6,30.03,NNE,23,0.4,2.1,61,0.00,,,0.00,WUHU216HW,2013-06-02 04:48:00,
2013-06-01 22:50:00,55.6,42.8,30.04,North,0,0.7,2.1,62,0.00,,,0.00,WUHU216HW,2013-06-02 04:50:00,
2013-06-01 22:52:00,55.4,42.6,30.03,NNE,23,0.0,1.5,62,0.00,,,0.00,WUHU216HW,2013-06-02 04:52:00,
2013-06-01 22:53:00,55.4,42.6,30.03,NNE,23,0.0,1.5,62,0.00,,,0.00,WUHU216HW,2013-06-02 04:53:00,
2013-06-01 22:54:00,55.3,42.4,30.03,NNE,23,0.0,1.5,62,0.00,,,0.00,WUHU216HW,2013-06-02 04:54:00,
2013-06-01 22:56:00,55.3,42.9,30.03,NNE,23,0.0,1.5,63,0.00,,,0.00,WUHU216HW,2013-06-02 04:56:00,
2013-06-01 22:57:00,55.1,42.7,30.03,East,90,0.9,1.3,63,0.00,,,0.00,WUHU216HW,2013-06-02 04:57:00,
2013-06-01 22:58:00,55.1,42.7,30.03,East,90,0.9,1.3,63,0.00,,,0.00,WUHU216HW,2013-06-02 04:58:00,
2013-06-01 22:59:00,54.9,42.9,30.03,ESE,113,1.3,1.5,64,0.00,,,0.00,WUHU216HW,2013-06-02 04:59:00,
2013-06-01 23:02:00,54.4,43.2,30.04,SE,135,0.7,1.5,66,0.00,,,0.00,WUHU216HW,2013-06-02 05:02:00,
2013-06-01 23:03:00,54.4,43.2,30.04,SE,135,0.7,1.5,66,0.00,,,0.00,WUHU216HW,2013-06-02 05:03:00,
2013-06-01 23:04:00,54.0,42.8,30.04,ESE,113,0.2,1.5,66,0.00,,,0.00,WUHU216HW,2013-06-02 05:04:00,
2013-06-01 23:07:00,53.6,42.5,30.03,East,90,1.1,1.5,66,0.00,,,0.00,WUHU216HW,2013-06-02 05:07:00,
2013-06-01 23:08:00,53.6,42.5,30.03,East,90,1.1,1.5,66,0.00,,,0.00,WUHU216HW,2013-06-02 05:08:00,
2013-06-01 23:09:00,53.6,42.5,30.04,East,90,0.4,1.5,66,0.00,,,0.00,WUHU216HW,2013-06-02 05:09:00,
2013-06-01 23:13:00,53.6,42.9,30.03,SE,135,1.1,1.3,67,0.00,,,0.00,WUHU216HW,2013-06-02 05:13:00,
2013-06-01 23:16:00,53.1,43.2,30.04,SSE,158,2.0,2.6,69,0.00,,,0.00,WUHU216HW,2013-06-02 05:16:00,
2013-06-01 23:17:00,53.1,44.0,30.03,SE,135,1.6,2.6,71,0.00,,,0.00,WUHU216HW,2013-06-02 05:17:00,
2013-06-01 23:18:00,53.1,44.0,30.03,SE,135,1.6,2.6,71,0.00,,,0.00,WUHU216HW,2013-06-02 05:18:00,
2013-06-01 23:20:00,53.1,43.7,30.03,SSE,158,0.2,2.6,70,0.00,,,0.00,WUHU216HW,2013-06-02 05:20:00,
2013-06-01 23:23:00,53.1,43.2,30.03,ESE,113,0.0,2.6,69,0.00,,,0.00,WUHU216HW,2013-06-02 05:23:00,
2013-06-01 23:24:00,52.9,43.0,30.03,ESE,113,0.0,2.6,69,0.00,,,0.00,WUHU216HW,2013-06-02 05:24:00,
2013-06-01 23:26:00,52.9,43.0,30.04,ESE,113,0.0,2.1,69,0.00,,,0.00,WUHU216HW,2013-06-02 05:26:00,
2013-06-01 23:28:00,52.9,43.0,30.03,ESE,113,0.0,1.5,69,0.00,,,0.00,WUHU216HW,2013-06-02 05:28:00,
2013-06-01 23:29:00,52.9,43.0,30.03,ESE,113,0.0,0.5,69,0.00,,,0.00,WUHU216HW,2013-06-02 05:29:00,
2013-06-01 23:30:00,52.9,43.0,30.03,ESE,113,0.2,0.5,69,0.00,,,0.00,WUHU216HW,2013-06-02 05:30:00,
2013-06-01 23:34:00,52.9,42.7,30.03,ESE,113,0.0,0.5,68,0.00,,,0.00,WUHU216HW,2013-06-02 05:34:00,
2013-06-01 23:35:00,52.9,42.7,30.03,ESE,113,0.0,0.5,68,0.00,,,0.00,WUHU216HW,2013-06-02 05:35:00,
2013-06-01 23:37:00,52.9,42.7,30.03,South,180,0.0,0.5,68,0.00,,,0.00,WUHU216HW,2013-06-02 05:37:00,
2013-06-01 23:39:00,52.9,42.7,30.03,South,180,0.0,0.5,68,0.00,,,0.00,WUHU216HW,2013-06-02 05:39:00,
2013-06-01 23:41:00,52.6,42.8,30.03,WSW,248,1.1,1.5,69,0.00,,,0.00,WUHU216HW,2013-06-02 05:41:00,
2013-06-01 23:43:00,52.6,42.8,30.03,SW,225,0.4,1.5,69,0.00,,,0.00,WUHU216HW,2013-06-02 05:43:00,
2013-06-01 23:44:00,52.6,42.8,30.03,SW,225,0.4,1.5,69,0.00,,,0.00,WUHU216HW,2013-06-02 05:44:00,
2013-06-01 23:46:00,52.4,42.6,30.03,SW,225,0.0,1.5,69,0.00,,,0.00,WUHU216HW,2013-06-02 05:46:00,
2013-06-01 23:48:00,52.4,42.6,30.03,WSW,248,1.1,1.5,69,0.00,,,0.00,WUHU216HW,2013-06-02 05:48:00,
2013-06-01 23:49:00,52.4,42.6,30.03,WSW,248,1.1,1.5,69,0.00,,,0.00,WUHU216HW,2013-06-02 05:49:00,
2013-06-01 23:52:00,52.4,42.6,30.03,WSW,248,1.3,2.1,69,0.00,,,0.00,WUHU216HW,2013-06-02 05:52:00,
2013-06-01 23:53:00,52.4,42.1,30.03,WSW,248,0.4,2.1,68,0.00,,,0.00,WUHU216HW,2013-06-02 05:53:00,
2013-06-01 23:54:00,52.4,42.1,30.03,WSW,248,0.4,2.1,68,0.00,,,0.00,WUHU216HW,2013-06-02 05:54:00,
2013-06-01 23:56:00,52.4,42.1,30.03,WSW,248,0.0,2.1,68,0.00,,,0.00,WUHU216HW,2013-06-02 05:56:00,
2013-06-01 23:58:00,52.4,42.1,30.03,SSE,158,1.1,2.1,68,0.00,,,0.00,WUHU216HW,2013-06-02 05:58:00,
2013-06-01 23:59:00,52.4,42.1,30.03,SSE,158,1.1,2.1,68,0.00,,,0.00,WUHU216HW,2013-06-02 05:59:00,